Home > Products > Valid Products > TAF

000
FTUS46 KOTX 021137
TAFPUW
TAF
KPUW 021137Z 0212/0312 26010KT P6SM SCT100 BKN150
     FM021700 25012G18KT P6SM VCSH FEW050 BKN070 OVC120
     FM030000 26013G20KT P6SM -SHRA SCT030 BKN060 OVC110
     FM030200 27008KT P6SM -SHRA BKN060 OVC090
     FM030700 23006KT P6SM SCT050 SCT090 BKN120=



000
FTUS46 KOTX 021137
TAFLWS
TAF
KLWS 021137Z 0212/0312 28004KT P6SM FEW050 SCT100 BKN200
     FM021400 32005KT P6SM FEW050 SCT070 OVC120
     FM022000 31012G20KT P6SM -SHRA SCT050 BKN070 OVC100
     FM030200 30008KT P6SM -SHRA BKN060 OVC090
     FM030900 22005KT P6SM SCT070 BKN120=



000
FTUS46 KOTX 021137
TAFMWH
TAF
KMWH 021137Z 0212/0312 22006KT P6SM VCSH SCT050 BKN070 BKN150
     FM021500 23013G19KT P6SM VCSH BKN070 OVC120
     FM021800 21015G23KT P6SM BKN060 BKN120
     FM030100 24008KT P6SM FEW080=



000
FTUS46 KOTX 021137
TAFSFF
TAF
KSFF 021137Z 0212/0312 22010KT P6SM VCSH BKN070 OVC130
     FM021500 24014G22KT P6SM VCSH SCT030 BKN060 OVC080
     FM030200 23007KT P6SM SCT070=



000
FTUS46 KOTX 021137
TAFGEG
TAF
KGEG 021137Z 0212/0312 20013KT P6SM VCSH BKN060 OVC130
     FM021500 23016G26KT P6SM VCSH SCT025 BKN050 OVC080
     FM030200 22010KT P6SM FEW060 SCT080=



000
FTUS46 KOTX 021137
TAFPUW
TAF
KPUW 021137Z 0212/0312 26010KT P6SM SCT100 BKN150
     FM021700 25012G18KT P6SM VCSH FEW050 BKN070 OVC120
     FM030000 26013G20KT P6SM -SHRA SCT030 BKN060 OVC110
     FM030200 27008KT P6SM -SHRA BKN060 OVC090
     FM030700 23006KT P6SM SCT050 SCT090 BKN120=



000
FTUS46 KOTX 021137
TAFCOE
TAF
KCOE 021137Z 0212/0312 20010KT P6SM VCSH BKN060 OVC100
     FM021500 22014G20KT P6SM VCSH SCT025 BKN060 OVC080
     FM030200 22007KT P6SM SCT080
     FM030600 15006KT P6SM FEW080
      AMD LTD TO CLD AND VIS=



000
FTUS46 KOTX 021137
TAFSFF
TAF
KSFF 021137Z 0212/0312 22010KT P6SM VCSH BKN070 OVC130
     FM021500 24014G22KT P6SM VCSH SCT030 BKN060 OVC080
     FM030200 23007KT P6SM SCT070=



000
FTUS46 KOTX 021137
TAFMWH
TAF
KMWH 021137Z 0212/0312 22006KT P6SM VCSH SCT050 BKN070 BKN150
     FM021500 23013G19KT P6SM VCSH BKN070 OVC120
     FM021800 21015G23KT P6SM BKN060 BKN120
     FM030100 24008KT P6SM FEW080=



000
FTUS46 KOTX 021137
TAFEAT
TAF
KEAT 021137Z 0212/0312 30007KT P6SM VCSH SCT040 BKN070 BKN120
     FM021500 31011KT P6SM SCT060 BKN080
     FM021900 29017G24KT P6SM SCT150
     FM030200 29009KT P6SM FEW200=



000
FTUS46 KOTX 021137
TAFCOE
TAF
KCOE 021137Z 0212/0312 20010KT P6SM VCSH BKN060 OVC100
     FM021500 22014G20KT P6SM VCSH SCT025 BKN060 OVC080
     FM030200 22007KT P6SM SCT080
     FM030600 15006KT P6SM FEW080
      AMD LTD TO CLD AND VIS=



000
FTUS46 KOTX 021137
TAFLWS
TAF
KLWS 021137Z 0212/0312 28004KT P6SM FEW050 SCT100 BKN200
     FM021400 32005KT P6SM FEW050 SCT070 OVC120
     FM022000 31012G20KT P6SM -SHRA SCT050 BKN070 OVC100
     FM030200 30008KT P6SM -SHRA BKN060 OVC090
     FM030900 22005KT P6SM SCT070 BKN120=



000
FTUS46 KOTX 021137
TAFEAT
TAF
KEAT 021137Z 0212/0312 30007KT P6SM VCSH SCT040 BKN070 BKN120
     FM021500 31011KT P6SM SCT060 BKN080
     FM021900 29017G24KT P6SM SCT150
     FM030200 29009KT P6SM FEW200=



000
FTUS46 KOTX 021137
TAFGEG
TAF
KGEG 021137Z 0212/0312 20013KT P6SM VCSH BKN060 OVC130
     FM021500 23016G26KT P6SM VCSH SCT025 BKN050 OVC080
     FM030200 22010KT P6SM FEW060 SCT080=



000
FTUS46 KOTX 021137
TAFEAT
TAF
KEAT 021137Z 0212/0312 30007KT P6SM VCSH SCT040 BKN070 BKN120
     FM021500 31011KT P6SM SCT060 BKN080
     FM021900 29017G24KT P6SM SCT150
     FM030200 29009KT P6SM FEW200=



000
FTUS46 KOTX 021137
TAFSFF
TAF
KSFF 021137Z 0212/0312 22010KT P6SM VCSH BKN070 OVC130
     FM021500 24014G22KT P6SM VCSH SCT030 BKN060 OVC080
     FM030200 23007KT P6SM SCT070=



000
FTUS46 KOTX 021137
TAFGEG
TAF
KGEG 021137Z 0212/0312 20013KT P6SM VCSH BKN060 OVC130
     FM021500 23016G26KT P6SM VCSH SCT025 BKN050 OVC080
     FM030200 22010KT P6SM FEW060 SCT080=



000
FTUS46 KOTX 021137
TAFLWS
TAF
KLWS 021137Z 0212/0312 28004KT P6SM FEW050 SCT100 BKN200
     FM021400 32005KT P6SM FEW050 SCT070 OVC120
     FM022000 31012G20KT P6SM -SHRA SCT050 BKN070 OVC100
     FM030200 30008KT P6SM -SHRA BKN060 OVC090
     FM030900 22005KT P6SM SCT070 BKN120=



000
FTUS46 KOTX 021137
TAFPUW
TAF
KPUW 021137Z 0212/0312 26010KT P6SM SCT100 BKN150
     FM021700 25012G18KT P6SM VCSH FEW050 BKN070 OVC120
     FM030000 26013G20KT P6SM -SHRA SCT030 BKN060 OVC110
     FM030200 27008KT P6SM -SHRA BKN060 OVC090
     FM030700 23006KT P6SM SCT050 SCT090 BKN120=



000
FTUS46 KOTX 021137
TAFMWH
TAF
KMWH 021137Z 0212/0312 22006KT P6SM VCSH SCT050 BKN070 BKN150
     FM021500 23013G19KT P6SM VCSH BKN070 OVC120
     FM021800 21015G23KT P6SM BKN060 BKN120
     FM030100 24008KT P6SM FEW080=



000
FTUS46 KOTX 021137
TAFMWH
TAF
KMWH 021137Z 0212/0312 22006KT P6SM VCSH SCT050 BKN070 BKN150
     FM021500 23013G19KT P6SM VCSH BKN070 OVC120
     FM021800 21015G23KT P6SM BKN060 BKN120
     FM030100 24008KT P6SM FEW080=



000
FTUS46 KOTX 021137
TAFCOE
TAF
KCOE 021137Z 0212/0312 20010KT P6SM VCSH BKN060 OVC100
     FM021500 22014G20KT P6SM VCSH SCT025 BKN060 OVC080
     FM030200 22007KT P6SM SCT080
     FM030600 15006KT P6SM FEW080
      AMD LTD TO CLD AND VIS=



000
FTUS46 KOTX 021137
TAFPUW
TAF
KPUW 021137Z 0212/0312 26010KT P6SM SCT100 BKN150
     FM021700 25012G18KT P6SM VCSH FEW050 BKN070 OVC120
     FM030000 26013G20KT P6SM -SHRA SCT030 BKN060 OVC110
     FM030200 27008KT P6SM -SHRA BKN060 OVC090
     FM030700 23006KT P6SM SCT050 SCT090 BKN120=



000
FTUS46 KOTX 021137
TAFSFF
TAF
KSFF 021137Z 0212/0312 22010KT P6SM VCSH BKN070 OVC130
     FM021500 24014G22KT P6SM VCSH SCT030 BKN060 OVC080
     FM030200 23007KT P6SM SCT070=



000
FTUS46 KOTX 021137
TAFLWS
TAF
KLWS 021137Z 0212/0312 28004KT P6SM FEW050 SCT100 BKN200
     FM021400 32005KT P6SM FEW050 SCT070 OVC120
     FM022000 31012G20KT P6SM -SHRA SCT050 BKN070 OVC100
     FM030200 30008KT P6SM -SHRA BKN060 OVC090
     FM030900 22005KT P6SM SCT070 BKN120=



000
FTUS46 KOTX 021137
TAFCOE
TAF
KCOE 021137Z 0212/0312 20010KT P6SM VCSH BKN060 OVC100
     FM021500 22014G20KT P6SM VCSH SCT025 BKN060 OVC080
     FM030200 22007KT P6SM SCT080
     FM030600 15006KT P6SM FEW080
      AMD LTD TO CLD AND VIS=



000
FTUS46 KOTX 021137
TAFGEG
TAF
KGEG 021137Z 0212/0312 20013KT P6SM VCSH BKN060 OVC130
     FM021500 23016G26KT P6SM VCSH SCT025 BKN050 OVC080
     FM030200 22010KT P6SM FEW060 SCT080=



000
FTUS46 KOTX 021137
TAFEAT
TAF
KEAT 021137Z 0212/0312 30007KT P6SM VCSH SCT040 BKN070 BKN120
     FM021500 31011KT P6SM SCT060 BKN080
     FM021900 29017G24KT P6SM SCT150
     FM030200 29009KT P6SM FEW200=



000
FTUS46 KOTX 020520
TAFLWS
TAF
KLWS 020520Z 0206/0306 28004KT P6SM SCT100 BKN200
     FM021400 32005KT P6SM FEW050 SCT070 OVC120
     FM022000 31012G20KT P6SM VCSH SCT050 BKN070 OVC100
     FM030200 30008KT P6SM BKN060 OVC090=



000
FTUS46 KOTX 020520
TAFPUW
TAF
KPUW 020520Z 0206/0306 24005KT P6SM BKN150
     FM021200 24010KT P6SM SCT100 BKN150
     FM021600 25012G18KT P6SM VCSH FEW050 BKN070 OVC120
     FM030200 27008KT P6SM BKN060 OVC090=



000
FTUS46 KOTX 020520
TAFSFF
TAF
KSFF 020520Z 0206/0306 22006KT P6SM FEW070 BKN120 BKN200
     FM020900 21010KT P6SM BKN070 OVC130
     FM021400 22014G22KT P6SM VCSH SCT040 BKN060 OVC080
     FM030200 23007KT P6SM SCT080=



000
FTUS46 KOTX 020520
TAFCOE
TAF
KCOE 020520Z 0206/0306 21007KT P6SM BKN120 BKN200
     FM021100 20010KT P6SM BKN060 OVC100
     FM021400 21014G20KT P6SM VCSH SCT040 BKN060 OVC080
     FM030200 22007KT P6SM SCT080
      AMD LTD TO CLD AND VIS=



000
FTUS46 KOTX 020520
TAFCOE
TAF
KCOE 020520Z 0206/0306 21007KT P6SM BKN120 BKN200
     FM021100 20010KT P6SM BKN060 OVC100
     FM021400 21014G20KT P6SM VCSH SCT040 BKN060 OVC080
     FM030200 22007KT P6SM SCT080
      AMD LTD TO CLD AND VIS=



000
FTUS46 KOTX 020520
TAFSFF
TAF
KSFF 020520Z 0206/0306 22006KT P6SM FEW070 BKN120 BKN200
     FM020900 21010KT P6SM BKN070 OVC130
     FM021400 22014G22KT P6SM VCSH SCT040 BKN060 OVC080
     FM030200 23007KT P6SM SCT080=



000
FTUS46 KOTX 020520
TAFLWS
TAF
KLWS 020520Z 0206/0306 28004KT P6SM SCT100 BKN200
     FM021400 32005KT P6SM FEW050 SCT070 OVC120
     FM022000 31012G20KT P6SM VCSH SCT050 BKN070 OVC100
     FM030200 30008KT P6SM BKN060 OVC090=



000
FTUS46 KOTX 020520
TAFGEG
TAF
KGEG 020520Z 0206/0306 20008KT P6SM FEW070 BKN120 OVC200
     FM020800 20013KT P6SM BKN060 OVC130
     FM021400 21018G26KT P6SM VCSH SCT040 BKN050 OVC080
     FM030200 22012KT P6SM FEW060 SCT080=



000
FTUS46 KOTX 020520
TAFMWH
TAF
KMWH 020520Z 0206/0306 22006KT P6SM SCT080 BKN150
     FM021400 23012KT P6SM BKN080 OVC120
     FM021600 21015G22KT P6SM BKN060 BKN120
     FM030100 24008KT P6SM FEW080=



000
FTUS46 KOTX 020520
TAFPUW
TAF
KPUW 020520Z 0206/0306 24005KT P6SM BKN150
     FM021200 24010KT P6SM SCT100 BKN150
     FM021600 25012G18KT P6SM VCSH FEW050 BKN070 OVC120
     FM030200 27008KT P6SM BKN060 OVC090=



000
FTUS46 KOTX 020520
TAFPUW
TAF
KPUW 020520Z 0206/0306 24005KT P6SM BKN150
     FM021200 24010KT P6SM SCT100 BKN150
     FM021600 25012G18KT P6SM VCSH FEW050 BKN070 OVC120
     FM030200 27008KT P6SM BKN060 OVC090=



000
FTUS46 KOTX 020520
TAFLWS
TAF
KLWS 020520Z 0206/0306 28004KT P6SM SCT100 BKN200
     FM021400 32005KT P6SM FEW050 SCT070 OVC120
     FM022000 31012G20KT P6SM VCSH SCT050 BKN070 OVC100
     FM030200 30008KT P6SM BKN060 OVC090=



000
FTUS46 KOTX 020520
TAFCOE
TAF
KCOE 020520Z 0206/0306 21007KT P6SM BKN120 BKN200
     FM021100 20010KT P6SM BKN060 OVC100
     FM021400 21014G20KT P6SM VCSH SCT040 BKN060 OVC080
     FM030200 22007KT P6SM SCT080
      AMD LTD TO CLD AND VIS=



000
FTUS46 KOTX 020520
TAFCOE
TAF
KCOE 020520Z 0206/0306 21007KT P6SM BKN120 BKN200
     FM021100 20010KT P6SM BKN060 OVC100
     FM021400 21014G20KT P6SM VCSH SCT040 BKN060 OVC080
     FM030200 22007KT P6SM SCT080
      AMD LTD TO CLD AND VIS=



000
FTUS46 KOTX 020520
TAFEAT
TAF
KEAT 020520Z 0206/0306 30010KT P6SM BKN080 OVC150
     FM021000 30007KT P6SM VCSH SCT060 BKN080 BKN120
     FM021400 31012KT P6SM SCT080
     FM021900 29016G22KT P6SM SCT150
     FM030200 29009KT P6SM FEW200=



000
FTUS46 KOTX 020520
TAFMWH
TAF
KMWH 020520Z 0206/0306 22006KT P6SM SCT080 BKN150
     FM021400 23012KT P6SM BKN080 OVC120
     FM021600 21015G22KT P6SM BKN060 BKN120
     FM030100 24008KT P6SM FEW080=



000
FTUS46 KOTX 020520
TAFEAT
TAF
KEAT 020520Z 0206/0306 30010KT P6SM BKN080 OVC150
     FM021000 30007KT P6SM VCSH SCT060 BKN080 BKN120
     FM021400 31012KT P6SM SCT080
     FM021900 29016G22KT P6SM SCT150
     FM030200 29009KT P6SM FEW200=



000
FTUS46 KOTX 020520
TAFGEG
TAF
KGEG 020520Z 0206/0306 20008KT P6SM FEW070 BKN120 OVC200
     FM020800 20013KT P6SM BKN060 OVC130
     FM021400 21018G26KT P6SM VCSH SCT040 BKN050 OVC080
     FM030200 22012KT P6SM FEW060 SCT080=



000
FTUS46 KOTX 020520
TAFGEG
TAF
KGEG 020520Z 0206/0306 20008KT P6SM FEW070 BKN120 OVC200
     FM020800 20013KT P6SM BKN060 OVC130
     FM021400 21018G26KT P6SM VCSH SCT040 BKN050 OVC080
     FM030200 22012KT P6SM FEW060 SCT080=



000
FTUS46 KOTX 020520
TAFGEG
TAF
KGEG 020520Z 0206/0306 20008KT P6SM FEW070 BKN120 OVC200
     FM020800 20013KT P6SM BKN060 OVC130
     FM021400 21018G26KT P6SM VCSH SCT040 BKN050 OVC080
     FM030200 22012KT P6SM FEW060 SCT080=



000
FTUS46 KOTX 020520
TAFPUW
TAF
KPUW 020520Z 0206/0306 24005KT P6SM BKN150
     FM021200 24010KT P6SM SCT100 BKN150
     FM021600 25012G18KT P6SM VCSH FEW050 BKN070 OVC120
     FM030200 27008KT P6SM BKN060 OVC090=



000
FTUS46 KOTX 020520
TAFLWS
TAF
KLWS 020520Z 0206/0306 28004KT P6SM SCT100 BKN200
     FM021400 32005KT P6SM FEW050 SCT070 OVC120
     FM022000 31012G20KT P6SM VCSH SCT050 BKN070 OVC100
     FM030200 30008KT P6SM BKN060 OVC090=



000
FTUS46 KOTX 020520
TAFMWH
TAF
KMWH 020520Z 0206/0306 22006KT P6SM SCT080 BKN150
     FM021400 23012KT P6SM BKN080 OVC120
     FM021600 21015G22KT P6SM BKN060 BKN120
     FM030100 24008KT P6SM FEW080=



000
FTUS46 KOTX 020520
TAFSFF
TAF
KSFF 020520Z 0206/0306 22006KT P6SM FEW070 BKN120 BKN200
     FM020900 21010KT P6SM BKN070 OVC130
     FM021400 22014G22KT P6SM VCSH SCT040 BKN060 OVC080
     FM030200 23007KT P6SM SCT080=



000
FTUS46 KOTX 020520
TAFEAT
TAF
KEAT 020520Z 0206/0306 30010KT P6SM BKN080 OVC150
     FM021000 30007KT P6SM VCSH SCT060 BKN080 BKN120
     FM021400 31012KT P6SM SCT080
     FM021900 29016G22KT P6SM SCT150
     FM030200 29009KT P6SM FEW200=



000
FTUS46 KOTX 020520
TAFSFF
TAF
KSFF 020520Z 0206/0306 22006KT P6SM FEW070 BKN120 BKN200
     FM020900 21010KT P6SM BKN070 OVC130
     FM021400 22014G22KT P6SM VCSH SCT040 BKN060 OVC080
     FM030200 23007KT P6SM SCT080=



000
FTUS46 KOTX 020520
TAFMWH
TAF
KMWH 020520Z 0206/0306 22006KT P6SM SCT080 BKN150
     FM021400 23012KT P6SM BKN080 OVC120
     FM021600 21015G22KT P6SM BKN060 BKN120
     FM030100 24008KT P6SM FEW080=



000
FTUS46 KOTX 012320
TAFLWS
TAF
KLWS 012320Z 0200/0224 28008KT P6SM SCT100 BKN200
     FM021400 32005KT P6SM FEW050 SCT070 OVC120
     FM021800 31012G20KT P6SM VCSH SCT050 BKN070 OVC100=



000
FTUS46 KOTX 012320
TAFMWH
TAF
KMWH 012320Z 0200/0224 19012KT P6SM BKN150
     FM020200 24009KT P6SM SCT080 BKN120
     FM021200 23012KT P6SM BKN080 OVC120
     FM021600 21015G22KT P6SM VCSH BKN060 BKN120=



000
FTUS46 KOTX 012320
TAFMWH
TAF
KMWH 012320Z 0200/0224 19012KT P6SM BKN150
     FM020200 24009KT P6SM SCT080 BKN120
     FM021200 23012KT P6SM BKN080 OVC120
     FM021600 21015G22KT P6SM VCSH BKN060 BKN120=



000
FTUS46 KOTX 012320
TAFCOE
TAF
KCOE 012320Z 0200/0224 19010KT P6SM FEW080 BKN200
     FM020200 20007KT P6SM BKN120 BKN200
     FM021100 20011KT P6SM BKN060 OVC100
     FM021400 21014G20KT P6SM VCSH SCT040 BKN060 OVC080
      AMD LTD TO CLD AND VIS=



000
FTUS46 KOTX 012320
TAFGEG
TAF
KGEG 012320Z 0200/0224 21010G16KT P6SM FEW050 SCT080 BKN200
     FM020200 21008KT P6SM FEW070 SCT120 BKN200
     FM020800 20013KT P6SM BKN060 OVC130
     FM021400 21018G26KT P6SM VCSH SCT040 BKN050 OVC080=



000
FTUS46 KOTX 012320
TAFEAT
TAF
KEAT 012320Z 0200/0224 30012KT P6SM BKN080 OVC150
     FM021000 30007KT P6SM VCSH SCT060 BKN080 BKN120
     FM021400 31012KT P6SM SCT080
     FM021900 29016G22KT P6SM SCT150=



000
FTUS46 KOTX 012320
TAFPUW
TAF
KPUW 012320Z 0200/0224 27006KT P6SM BKN200
     FM020800 24010KT P6SM SCT080 BKN150
     FM021600 25010G18KT P6SM VCSH FEW050 BKN070 OVC120=



000
FTUS46 KOTX 012320
TAFEAT
TAF
KEAT 012320Z 0200/0224 30012KT P6SM BKN080 OVC150
     FM021000 30007KT P6SM VCSH SCT060 BKN080 BKN120
     FM021400 31012KT P6SM SCT080
     FM021900 29016G22KT P6SM SCT150=



000
FTUS46 KOTX 012320
TAFSFF
TAF
KSFF 012320Z 0200/0224 21008G16KT P6SM FEW050 SCT080 BKN200
     FM020100 22006KT P6SM FEW070 SCT120 BKN200
     FM020900 21010KT P6SM BKN070 OVC130
     FM021400 22014G22KT P6SM VCSH SCT040 BKN060 OVC080=



000
FTUS46 KOTX 012125 AAA
TAFCOE
TAF AMD
KCOE 012125Z 0121/0218 18010KT P6SM FEW080 BKN200
     FM020200 20007KT P6SM SCT080 BKN120
     FM021100 20011KT P6SM BKN060 OVC100
      AMD LTD TO CLD AND VIS=



000
FTUS46 KOTX 012125 AAA
TAFPUW
TAF AMD
KPUW 012125Z 0121/0218 25006KT P6SM FEW250
     FM020200 27005KT P6SM BKN200
     FM021400 25010KT P6SM SCT070 OVC120=



000
FTUS46 KOTX 012125 AAA
TAFPUW
TAF AMD
KPUW 012125Z 0121/0218 25006KT P6SM FEW250
     FM020200 27005KT P6SM BKN200
     FM021400 25010KT P6SM SCT070 OVC120=



000
FTUS46 KOTX 012125 AAA
TAFPUW
TAF AMD
KPUW 012125Z 0121/0218 25006KT P6SM FEW250
     FM020200 27005KT P6SM BKN200
     FM021400 25010KT P6SM SCT070 OVC120=



000
FTUS46 KOTX 012125 AAA
TAFCOE
TAF AMD
KCOE 012125Z 0121/0218 18010KT P6SM FEW080 BKN200
     FM020200 20007KT P6SM SCT080 BKN120
     FM021100 20011KT P6SM BKN060 OVC100
      AMD LTD TO CLD AND VIS=



000
FTUS46 KOTX 012125 AAA
TAFCOE
TAF AMD
KCOE 012125Z 0121/0218 18010KT P6SM FEW080 BKN200
     FM020200 20007KT P6SM SCT080 BKN120
     FM021100 20011KT P6SM BKN060 OVC100
      AMD LTD TO CLD AND VIS=



000
FTUS46 KOTX 012125 AAA
TAFCOE
TAF AMD
KCOE 012125Z 0121/0218 18010KT P6SM FEW080 BKN200
     FM020200 20007KT P6SM SCT080 BKN120
     FM021100 20011KT P6SM BKN060 OVC100
      AMD LTD TO CLD AND VIS=



000
FTUS46 KOTX 012124 AAA
TAFGEG
TAF AMD
KGEG 012124Z 0121/0218 20008KT P6SM FEW045 SCT080 BKN250
     FM020200 21006KT P6SM FEW070 SCT120 BKN200
     FM020800 20013KT P6SM BKN060 OVC130=



000
FTUS46 KOTX 012124 AAA
TAFGEG
TAF AMD
KGEG 012124Z 0121/0218 20008KT P6SM FEW045 SCT080 BKN250
     FM020200 21006KT P6SM FEW070 SCT120 BKN200
     FM020800 20013KT P6SM BKN060 OVC130=



000
FTUS46 KOTX 011737
TAFCOE
TAF
KCOE 011737Z 0118/0218 17008KT P6SM BKN035 BKN050 BKN080
     FM011900 22010G18KT P6SM BKN070 BKN150
     FM020200 20007KT P6SM SCT080 BKN120
     FM021100 20011KT P6SM BKN060 OVC100
      AMD LTD TO CLD AND VIS=



000
FTUS46 KOTX 011737
TAFCOE
TAF
KCOE 011737Z 0118/0218 17008KT P6SM BKN035 BKN050 BKN080
     FM011900 22010G18KT P6SM BKN070 BKN150
     FM020200 20007KT P6SM SCT080 BKN120
     FM021100 20011KT P6SM BKN060 OVC100
      AMD LTD TO CLD AND VIS=



000
FTUS46 KOTX 011737
TAFEAT
TAF
KEAT 011737Z 0118/0218 VRB05KT P6SM BKN130 BKN200
     FM012100 13005KT P6SM SCT060 BKN080 BKN120
     FM020000 28012KT P6SM BKN070 OVC100
     FM021500 30009KT P6SM SCT100 SCT200=



000
FTUS46 KOTX 011737
TAFGEG
TAF
KGEG 011737Z 0118/0218 20012G18KT P6SM SCT050 BKN090 BKN250
     FM020200 21009KT P6SM FEW070 SCT120 BKN200
     FM020800 20013KT P6SM BKN060 OVC130=



000
FTUS46 KOTX 011737
TAFSFF
TAF
KSFF 011737Z 0118/0218 20006KT P6SM OVC080
     FM011900 21010G18KT P6SM BKN090 BKN200
     FM020200 22006KT P6SM FEW070 SCT120 BKN200
     FM020900 21010KT P6SM BKN070 OVC130=



000
FTUS46 KOTX 011737
TAFPUW
TAF
KPUW 011737Z 0118/0218 25010G17KT P6SM FEW250
     FM020200 27005KT P6SM BKN200
     FM021400 25010KT P6SM SCT070 OVC120=



000
FTUS46 KOTX 011737
TAFSFF
TAF
KSFF 011737Z 0118/0218 20006KT P6SM OVC080
     FM011900 21010G18KT P6SM BKN090 BKN200
     FM020200 22006KT P6SM FEW070 SCT120 BKN200
     FM020900 21010KT P6SM BKN070 OVC130=



000
FTUS46 KOTX 011737
TAFGEG
TAF
KGEG 011737Z 0118/0218 20012G18KT P6SM SCT050 BKN090 BKN250
     FM020200 21009KT P6SM FEW070 SCT120 BKN200
     FM020800 20013KT P6SM BKN060 OVC130=



000
FTUS46 KOTX 011737
TAFLWS
TAF
KLWS 011737Z 0118/0218 35004KT P6SM FEW250
     FM012200 36010G16KT 6SM FU HZ SCT040 SCT200
     FM020200 28007KT P6SM SCT100 BKN200
     FM021500 32005KT P6SM SCT070 OVC120=



000
FTUS46 KOTX 011737
TAFMWH
TAF
KMWH 011737Z 0118/0218 18013KT P6SM SCT130 BKN200
     FM012100 19012G18KT P6SM FEW060 BKN130
     FM020300 24009KT P6SM FEW100 BKN200
     FM021200 23012KT P6SM BKN100 BKN150=



000
FTUS46 KOTX 011737
TAFSFF
TAF
KSFF 011737Z 0118/0218 20006KT P6SM OVC080
     FM011900 21010G18KT P6SM BKN090 BKN200
     FM020200 22006KT P6SM FEW070 SCT120 BKN200
     FM020900 21010KT P6SM BKN070 OVC130=



000
FTUS46 KOTX 011737
TAFPUW
TAF
KPUW 011737Z 0118/0218 25010G17KT P6SM FEW250
     FM020200 27005KT P6SM BKN200
     FM021400 25010KT P6SM SCT070 OVC120=



000
FTUS46 KOTX 011737
TAFGEG
TAF
KGEG 011737Z 0118/0218 20012G18KT P6SM SCT050 BKN090 BKN250
     FM020200 21009KT P6SM FEW070 SCT120 BKN200
     FM020800 20013KT P6SM BKN060 OVC130=



000
FTUS46 KOTX 011737
TAFEAT
TAF
KEAT 011737Z 0118/0218 VRB05KT P6SM BKN130 BKN200
     FM012100 13005KT P6SM SCT060 BKN080 BKN120
     FM020000 28012KT P6SM BKN070 OVC100
     FM021500 30009KT P6SM SCT100 SCT200=



000
FTUS46 KOTX 011737
TAFCOE
TAF
KCOE 011737Z 0118/0218 17008KT P6SM BKN035 BKN050 BKN080
     FM011900 22010G18KT P6SM BKN070 BKN150
     FM020200 20007KT P6SM SCT080 BKN120
     FM021100 20011KT P6SM BKN060 OVC100
      AMD LTD TO CLD AND VIS=



000
FTUS46 KOTX 011737
TAFMWH
TAF
KMWH 011737Z 0118/0218 18013KT P6SM SCT130 BKN200
     FM012100 19012G18KT P6SM FEW060 BKN130
     FM020300 24009KT P6SM FEW100 BKN200
     FM021200 23012KT P6SM BKN100 BKN150=



000
FTUS46 KOTX 011737
TAFPUW
TAF
KPUW 011737Z 0118/0218 25010G17KT P6SM FEW250
     FM020200 27005KT P6SM BKN200
     FM021400 25010KT P6SM SCT070 OVC120=



000
FTUS46 KOTX 011737
TAFEAT
TAF
KEAT 011737Z 0118/0218 VRB05KT P6SM BKN130 BKN200
     FM012100 13005KT P6SM SCT060 BKN080 BKN120
     FM020000 28012KT P6SM BKN070 OVC100
     FM021500 30009KT P6SM SCT100 SCT200=



000
FTUS46 KOTX 011737
TAFLWS
TAF
KLWS 011737Z 0118/0218 35004KT P6SM FEW250
     FM012200 36010G16KT 6SM FU HZ SCT040 SCT200
     FM020200 28007KT P6SM SCT100 BKN200
     FM021500 32005KT P6SM SCT070 OVC120=



000
FTUS46 KOTX 011737
TAFMWH
TAF
KMWH 011737Z 0118/0218 18013KT P6SM SCT130 BKN200
     FM012100 19012G18KT P6SM FEW060 BKN130
     FM020300 24009KT P6SM FEW100 BKN200
     FM021200 23012KT P6SM BKN100 BKN150=



000
FTUS46 KOTX 011737
TAFLWS
TAF
KLWS 011737Z 0118/0218 35004KT P6SM FEW250
     FM012200 36010G16KT 6SM FU HZ SCT040 SCT200
     FM020200 28007KT P6SM SCT100 BKN200
     FM021500 32005KT P6SM SCT070 OVC120=



000
FTUS46 KOTX 011737
TAFCOE
TAF
KCOE 011737Z 0118/0218 17008KT P6SM BKN035 BKN050 BKN080
     FM011900 22010G18KT P6SM BKN070 BKN150
     FM020200 20007KT P6SM SCT080 BKN120
     FM021100 20011KT P6SM BKN060 OVC100
      AMD LTD TO CLD AND VIS=



000
FTUS46 KOTX 011737
TAFSFF
TAF
KSFF 011737Z 0118/0218 20006KT P6SM OVC080
     FM011900 21010G18KT P6SM BKN090 BKN200
     FM020200 22006KT P6SM FEW070 SCT120 BKN200
     FM020900 21010KT P6SM BKN070 OVC130=



000
FTUS46 KOTX 011737
TAFGEG
TAF
KGEG 011737Z 0118/0218 20012G18KT P6SM SCT050 BKN090 BKN250
     FM020200 21009KT P6SM FEW070 SCT120 BKN200
     FM020800 20013KT P6SM BKN060 OVC130=



000
FTUS46 KOTX 011737
TAFPUW
TAF
KPUW 011737Z 0118/0218 25010G17KT P6SM FEW250
     FM020200 27005KT P6SM BKN200
     FM021400 25010KT P6SM SCT070 OVC120=



000
FTUS46 KOTX 011737
TAFEAT
TAF
KEAT 011737Z 0118/0218 VRB05KT P6SM BKN130 BKN200
     FM012100 13005KT P6SM SCT060 BKN080 BKN120
     FM020000 28012KT P6SM BKN070 OVC100
     FM021500 30009KT P6SM SCT100 SCT200=



000
FTUS46 KOTX 011737
TAFLWS
TAF
KLWS 011737Z 0118/0218 35004KT P6SM FEW250
     FM012200 36010G16KT 6SM FU HZ SCT040 SCT200
     FM020200 28007KT P6SM SCT100 BKN200
     FM021500 32005KT P6SM SCT070 OVC120=



000
FTUS46 KOTX 011737
TAFMWH
TAF
KMWH 011737Z 0118/0218 18013KT P6SM SCT130 BKN200
     FM012100 19012G18KT P6SM FEW060 BKN130
     FM020300 24009KT P6SM FEW100 BKN200
     FM021200 23012KT P6SM BKN100 BKN150=



000
FTUS46 KOTX 011450 AAB
TAFPUW
TAF AMD
KPUW 011450Z 0115/0212 26009KT P6SM SCT120 SCT200
     FM011600 20008KT P6SM SCT150
     FM012000 25012G18KT P6SM FEW100 BKN150
     FM020200 27005KT P6SM BKN150=



000
FTUS46 KOTX 011450 AAB
TAFPUW
TAF AMD
KPUW 011450Z 0115/0212 26009KT P6SM SCT120 SCT200
     FM011600 20008KT P6SM SCT150
     FM012000 25012G18KT P6SM FEW100 BKN150
     FM020200 27005KT P6SM BKN150=



000
FTUS46 KOTX 011450 AAB
TAFPUW
TAF AMD
KPUW 011450Z 0115/0212 26009KT P6SM SCT120 SCT200
     FM011600 20008KT P6SM SCT150
     FM012000 25012G18KT P6SM FEW100 BKN150
     FM020200 27005KT P6SM BKN150=



000
FTUS46 KOTX 011220 AAA
TAFLWS
TAF AMD
KLWS 011220Z 0112/0212 14003KT 6SM FU HZ SCT020 BKN150
     FM012000 36010G16KT 6SM FU HZ SCT040 SCT200
     FM020200 28009KT P6SM SCT100 BKN200=



000
FTUS46 KOTX 011220 AAA
TAFPUW
TAF AMD
KPUW 011220Z 0112/0212 26012G20KT P6SM SCT080 BKN100 BKN200
     FM011500 23006KT 6SM FU HZ SCT080 BKN100 BKN250
     FM011600 20008KT P6SM SCT150
     FM012000 25012G18KT P6SM FEW100 BKN150
     FM020200 27005KT P6SM BKN150=



000
FTUS46 KOTX 011220 AAA
TAFLWS
TAF AMD
KLWS 011220Z 0112/0212 14003KT 6SM FU HZ SCT020 BKN150
     FM012000 36010G16KT 6SM FU HZ SCT040 SCT200
     FM020200 28009KT P6SM SCT100 BKN200=



000
FTUS46 KOTX 011220 AAA
TAFLWS
TAF AMD
KLWS 011220Z 0112/0212 14003KT 6SM FU HZ SCT020 BKN150
     FM012000 36010G16KT 6SM FU HZ SCT040 SCT200
     FM020200 28009KT P6SM SCT100 BKN200=



000
FTUS46 KOTX 011220 AAA
TAFLWS
TAF AMD
KLWS 011220Z 0112/0212 14003KT 6SM FU HZ SCT020 BKN150
     FM012000 36010G16KT 6SM FU HZ SCT040 SCT200
     FM020200 28009KT P6SM SCT100 BKN200=



000
FTUS46 KOTX 011220 AAA
TAFPUW
TAF AMD
KPUW 011220Z 0112/0212 26012G20KT P6SM SCT080 BKN100 BKN200
     FM011500 23006KT 6SM FU HZ SCT080 BKN100 BKN250
     FM011600 20008KT P6SM SCT150
     FM012000 25012G18KT P6SM FEW100 BKN150
     FM020200 27005KT P6SM BKN150=



000
FTUS46 KOTX 011220 AAA
TAFPUW
TAF AMD
KPUW 011220Z 0112/0212 26012G20KT P6SM SCT080 BKN100 BKN200
     FM011500 23006KT 6SM FU HZ SCT080 BKN100 BKN250
     FM011600 20008KT P6SM SCT150
     FM012000 25012G18KT P6SM FEW100 BKN150
     FM020200 27005KT P6SM BKN150=



000
FTUS46 KOTX 011121
TAFEAT
TAF
KEAT 011121Z 0112/0212 29007KT P6SM SCT080 BKN120
     FM012000 13005KT P6SM SCT060 BKN080 BKN120
     FM012300 28012KT P6SM BKN060 OVC100=



000
FTUS46 KOTX 011121
TAFLWS
TAF
KLWS 011121Z 0112/0212 14003KT 5SM FU HZ SCT020 BKN150
     FM012000 36010G16KT 6SM FU HZ SCT040 SCT200
     FM020200 28009KT P6SM SCT100 BKN200=



000
FTUS46 KOTX 011121
TAFGEG
TAF
KGEG 011121Z 0112/0212 19010KT P6SM SCT080 BKN100 BKN200
     FM011900 21012G20KT P6SM SCT060 BKN150
     FM020200 21009KT P6SM FEW070 SCT120 BKN200=



000
FTUS46 KOTX 011121
TAFLWS
TAF
KLWS 011121Z 0112/0212 14003KT 5SM FU HZ SCT020 BKN150
     FM012000 36010G16KT 6SM FU HZ SCT040 SCT200
     FM020200 28009KT P6SM SCT100 BKN200=



000
FTUS46 KOTX 011121
TAFCOE
TAF
KCOE 011121Z 0112/0212 18008KT P6SM SCT080 BKN100 BKN200
     FM011900 22010G18KT P6SM SCT080 BKN150
     FM020200 20007KT P6SM SCT080 BKN120
      AMD LTD TO CLD AND VIS=



000
FTUS46 KOTX 011121
TAFGEG
TAF
KGEG 011121Z 0112/0212 19010KT P6SM SCT080 BKN100 BKN200
     FM011900 21012G20KT P6SM SCT060 BKN150
     FM020200 21009KT P6SM FEW070 SCT120 BKN200=



000
FTUS46 KOTX 011121
TAFPUW
TAF
KPUW 011121Z 0112/0212 23006KT 6SM FU HZ SCT080 BKN100 BKN250
     FM011600 20008KT P6SM SCT150
     FM012000 25012G18KT P6SM FEW100 BKN150
     FM020200 27005KT P6SM BKN150=



000
FTUS46 KOTX 011121
TAFSFF
TAF
KSFF 011121Z 0112/0212 21007KT P6SM SCT080 BKN100 BKN200
     FM011900 21010G18KT P6SM SCT060 BKN150
     FM020200 22006KT P6SM FEW070 SCT120 BKN200=



000
FTUS46 KOTX 011121
TAFSFF
TAF
KSFF 011121Z 0112/0212 21007KT P6SM SCT080 BKN100 BKN200
     FM011900 21010G18KT P6SM SCT060 BKN150
     FM020200 22006KT P6SM FEW070 SCT120 BKN200=



000
FTUS46 KOTX 011121
TAFGEG
TAF
KGEG 011121Z 0112/0212 19010KT P6SM SCT080 BKN100 BKN200
     FM011900 21012G20KT P6SM SCT060 BKN150
     FM020200 21009KT P6SM FEW070 SCT120 BKN200=



000
FTUS46 KOTX 011121
TAFCOE
TAF
KCOE 011121Z 0112/0212 18008KT P6SM SCT080 BKN100 BKN200
     FM011900 22010G18KT P6SM SCT080 BKN150
     FM020200 20007KT P6SM SCT080 BKN120
      AMD LTD TO CLD AND VIS=



000
FTUS46 KOTX 011121
TAFPUW
TAF
KPUW 011121Z 0112/0212 23006KT 6SM FU HZ SCT080 BKN100 BKN250
     FM011600 20008KT P6SM SCT150
     FM012000 25012G18KT P6SM FEW100 BKN150
     FM020200 27005KT P6SM BKN150=



000
FTUS46 KOTX 011121
TAFEAT
TAF
KEAT 011121Z 0112/0212 29007KT P6SM SCT080 BKN120
     FM012000 13005KT P6SM SCT060 BKN080 BKN120
     FM012300 28012KT P6SM BKN060 OVC100=



000
FTUS46 KOTX 011121
TAFCOE
TAF
KCOE 011121Z 0112/0212 18008KT P6SM SCT080 BKN100 BKN200
     FM011900 22010G18KT P6SM SCT080 BKN150
     FM020200 20007KT P6SM SCT080 BKN120
      AMD LTD TO CLD AND VIS=



000
FTUS46 KOTX 011121
TAFMWH
TAF
KMWH 011121Z 0112/0212 20005KT P6SM SCT150
     FM011900 19012G18KT P6SM FEW060 BKN150
     FM020300 24009KT P6SM FEW100 SCT200=



000
FTUS46 KOTX 011121
TAFLWS
TAF
KLWS 011121Z 0112/0212 14003KT 5SM FU HZ SCT020 BKN150
     FM012000 36010G16KT 6SM FU HZ SCT040 SCT200
     FM020200 28009KT P6SM SCT100 BKN200=



000
FTUS46 KOTX 011121
TAFPUW
TAF
KPUW 011121Z 0112/0212 23006KT 6SM FU HZ SCT080 BKN100 BKN250
     FM011600 20008KT P6SM SCT150
     FM012000 25012G18KT P6SM FEW100 BKN150
     FM020200 27005KT P6SM BKN150=



000
FTUS46 KOTX 011121
TAFPUW
TAF
KPUW 011121Z 0112/0212 23006KT 6SM FU HZ SCT080 BKN100 BKN250
     FM011600 20008KT P6SM SCT150
     FM012000 25012G18KT P6SM FEW100 BKN150
     FM020200 27005KT P6SM BKN150=



000
FTUS46 KOTX 011121
TAFEAT
TAF
KEAT 011121Z 0112/0212 29007KT P6SM SCT080 BKN120
     FM012000 13005KT P6SM SCT060 BKN080 BKN120
     FM012300 28012KT P6SM BKN060 OVC100=



000
FTUS46 KOTX 011121
TAFMWH
TAF
KMWH 011121Z 0112/0212 20005KT P6SM SCT150
     FM011900 19012G18KT P6SM FEW060 BKN150
     FM020300 24009KT P6SM FEW100 SCT200=



000
FTUS46 KOTX 011121
TAFMWH
TAF
KMWH 011121Z 0112/0212 20005KT P6SM SCT150
     FM011900 19012G18KT P6SM FEW060 BKN150
     FM020300 24009KT P6SM FEW100 SCT200=



000
FTUS46 KOTX 011121
TAFGEG
TAF
KGEG 011121Z 0112/0212 19010KT P6SM SCT080 BKN100 BKN200
     FM011900 21012G20KT P6SM SCT060 BKN150
     FM020200 21009KT P6SM FEW070 SCT120 BKN200=



000
FTUS46 KOTX 011121
TAFLWS
TAF
KLWS 011121Z 0112/0212 14003KT 5SM FU HZ SCT020 BKN150
     FM012000 36010G16KT 6SM FU HZ SCT040 SCT200
     FM020200 28009KT P6SM SCT100 BKN200=



000
FTUS46 KOTX 011121
TAFSFF
TAF
KSFF 011121Z 0112/0212 21007KT P6SM SCT080 BKN100 BKN200
     FM011900 21010G18KT P6SM SCT060 BKN150
     FM020200 22006KT P6SM FEW070 SCT120 BKN200=



000
FTUS46 KOTX 011121
TAFCOE
TAF
KCOE 011121Z 0112/0212 18008KT P6SM SCT080 BKN100 BKN200
     FM011900 22010G18KT P6SM SCT080 BKN150
     FM020200 20007KT P6SM SCT080 BKN120
      AMD LTD TO CLD AND VIS=



000
FTUS46 KOTX 011121
TAFSFF
TAF
KSFF 011121Z 0112/0212 21007KT P6SM SCT080 BKN100 BKN200
     FM011900 21010G18KT P6SM SCT060 BKN150
     FM020200 22006KT P6SM FEW070 SCT120 BKN200=



000
FTUS46 KOTX 011121
TAFMWH
TAF
KMWH 011121Z 0112/0212 20005KT P6SM SCT150
     FM011900 19012G18KT P6SM FEW060 BKN150
     FM020300 24009KT P6SM FEW100 SCT200=



000
FTUS46 KOTX 011121
TAFEAT
TAF
KEAT 011121Z 0112/0212 29007KT P6SM SCT080 BKN120
     FM012000 13005KT P6SM SCT060 BKN080 BKN120
     FM012300 28012KT P6SM BKN060 OVC100=



000
FTUS46 KOTX 010520
TAFMWH
TAF
KMWH 010520Z 0106/0206 23008KT P6SM SCT100 BKN150
     FM011000 20005KT P6SM SCT150
     FM011900 19012G18KT P6SM FEW060 BKN150
     FM020300 24009KT P6SM FEW100 SCT200=



000
FTUS46 KOTX 010520
TAFPUW
TAF
KPUW 010520Z 0106/0206 23004KT P6SM SCT150 BKN250
     FM011600 20008KT P6SM SCT150
     FM012000 25012G18KT P6SM FEW100 BKN150
     FM020200 27005KT P6SM BKN150=



000
FTUS46 KOTX 010520
TAFGEG
TAF
KGEG 010520Z 0106/0206 20010KT P6SM SCT060 SCT120 BKN200
     FM011900 21012G20KT P6SM SCT060 BKN150
     FM020200 21009KT P6SM FEW070 SCT120 BKN200=



000
FTUS46 KOTX 010520
TAFPUW
TAF
KPUW 010520Z 0106/0206 23004KT P6SM SCT150 BKN250
     FM011600 20008KT P6SM SCT150
     FM012000 25012G18KT P6SM FEW100 BKN150
     FM020200 27005KT P6SM BKN150=



000
FTUS46 KOTX 010520
TAFGEG
TAF
KGEG 010520Z 0106/0206 20010KT P6SM SCT060 SCT120 BKN200
     FM011900 21012G20KT P6SM SCT060 BKN150
     FM020200 21009KT P6SM FEW070 SCT120 BKN200=



000
FTUS46 KOTX 010520
TAFCOE
TAF
KCOE 010520Z 0106/0206 18008KT P6SM SCT120 BKN200
     FM011900 22010G18KT P6SM SCT080 BKN150
     FM020200 20007KT P6SM SCT080 BKN120
      AMD LTD TO CLD AND VIS=



000
FTUS46 KOTX 010520
TAFPUW
TAF
KPUW 010520Z 0106/0206 23004KT P6SM SCT150 BKN250
     FM011600 20008KT P6SM SCT150
     FM012000 25012G18KT P6SM FEW100 BKN150
     FM020200 27005KT P6SM BKN150=



000
FTUS46 KOTX 010520
TAFGEG
TAF
KGEG 010520Z 0106/0206 20010KT P6SM SCT060 SCT120 BKN200
     FM011900 21012G20KT P6SM SCT060 BKN150
     FM020200 21009KT P6SM FEW070 SCT120 BKN200=



000
FTUS46 KOTX 010520
TAFMWH
TAF
KMWH 010520Z 0106/0206 23008KT P6SM SCT100 BKN150
     FM011000 20005KT P6SM SCT150
     FM011900 19012G18KT P6SM FEW060 BKN150
     FM020300 24009KT P6SM FEW100 SCT200=



000
FTUS46 KOTX 010520
TAFEAT
TAF
KEAT 010520Z 0106/0206 27012KT P6SM BKN120
     FM011000 29007KT P6SM SCT080 BKN120
     FM012000 13005KT P6SM SCT060 BKN080 BKN120
     FM012300 28012KT P6SM BKN060 OVC100=



000
FTUS46 KOTX 010520
TAFCOE
TAF
KCOE 010520Z 0106/0206 18008KT P6SM SCT120 BKN200
     FM011900 22010G18KT P6SM SCT080 BKN150
     FM020200 20007KT P6SM SCT080 BKN120
      AMD LTD TO CLD AND VIS=



000
FTUS46 KOTX 010520
TAFEAT
TAF
KEAT 010520Z 0106/0206 27012KT P6SM BKN120
     FM011000 29007KT P6SM SCT080 BKN120
     FM012000 13005KT P6SM SCT060 BKN080 BKN120
     FM012300 28012KT P6SM BKN060 OVC100=



000
FTUS46 KOTX 010520
TAFSFF
TAF
KSFF 010520Z 0106/0206 21007KT P6SM SCT120 BKN200
     FM011900 21010G18KT P6SM SCT060 BKN150
     FM020200 22006KT P6SM FEW070 SCT120 BKN200=



000
FTUS46 KOTX 010520
TAFEAT
TAF
KEAT 010520Z 0106/0206 27012KT P6SM BKN120
     FM011000 29007KT P6SM SCT080 BKN120
     FM012000 13005KT P6SM SCT060 BKN080 BKN120
     FM012300 28012KT P6SM BKN060 OVC100=



000
FTUS46 KOTX 010520
TAFSFF
TAF
KSFF 010520Z 0106/0206 21007KT P6SM SCT120 BKN200
     FM011900 21010G18KT P6SM SCT060 BKN150
     FM020200 22006KT P6SM FEW070 SCT120 BKN200=



000
FTUS46 KOTX 010520
TAFCOE
TAF
KCOE 010520Z 0106/0206 18008KT P6SM SCT120 BKN200
     FM011900 22010G18KT P6SM SCT080 BKN150
     FM020200 20007KT P6SM SCT080 BKN120
      AMD LTD TO CLD AND VIS=



000
FTUS46 KOTX 010520
TAFMWH
TAF
KMWH 010520Z 0106/0206 23008KT P6SM SCT100 BKN150
     FM011000 20005KT P6SM SCT150
     FM011900 19012G18KT P6SM FEW060 BKN150
     FM020300 24009KT P6SM FEW100 SCT200=



000
FTUS46 KOTX 010520
TAFPUW
TAF
KPUW 010520Z 0106/0206 23004KT P6SM SCT150 BKN250
     FM011600 20008KT P6SM SCT150
     FM012000 25012G18KT P6SM FEW100 BKN150
     FM020200 27005KT P6SM BKN150=



000
FTUS46 KOTX 010520
TAFLWS
TAF
KLWS 010520Z 0106/0206 21005KT P6SM SCT150
     FM011200 14003KT 5SM FU HZ SCT020 BKN150
     FM012000 36010G16KT 6SM FU HZ SCT040 SCT200
     FM020200 28009KT P6SM SCT100 BKN200=



000
FTUS46 KOTX 010520
TAFSFF
TAF
KSFF 010520Z 0106/0206 21007KT P6SM SCT120 BKN200
     FM011900 21010G18KT P6SM SCT060 BKN150
     FM020200 22006KT P6SM FEW070 SCT120 BKN200=



000
FTUS46 KOTX 010520
TAFEAT
TAF
KEAT 010520Z 0106/0206 27012KT P6SM BKN120
     FM011000 29007KT P6SM SCT080 BKN120
     FM012000 13005KT P6SM SCT060 BKN080 BKN120
     FM012300 28012KT P6SM BKN060 OVC100=



000
FTUS46 KOTX 010520
TAFLWS
TAF
KLWS 010520Z 0106/0206 21005KT P6SM SCT150
     FM011200 14003KT 5SM FU HZ SCT020 BKN150
     FM012000 36010G16KT 6SM FU HZ SCT040 SCT200
     FM020200 28009KT P6SM SCT100 BKN200=



000
FTUS46 KOTX 010520
TAFGEG
TAF
KGEG 010520Z 0106/0206 20010KT P6SM SCT060 SCT120 BKN200
     FM011900 21012G20KT P6SM SCT060 BKN150
     FM020200 21009KT P6SM FEW070 SCT120 BKN200=



000
FTUS46 KOTX 010520
TAFMWH
TAF
KMWH 010520Z 0106/0206 23008KT P6SM SCT100 BKN150
     FM011000 20005KT P6SM SCT150
     FM011900 19012G18KT P6SM FEW060 BKN150
     FM020300 24009KT P6SM FEW100 SCT200=



000
FTUS46 KOTX 010520
TAFCOE
TAF
KCOE 010520Z 0106/0206 18008KT P6SM SCT120 BKN200
     FM011900 22010G18KT P6SM SCT080 BKN150
     FM020200 20007KT P6SM SCT080 BKN120
      AMD LTD TO CLD AND VIS=



000
FTUS46 KOTX 010520
TAFLWS
TAF
KLWS 010520Z 0106/0206 21005KT P6SM SCT150
     FM011200 14003KT 5SM FU HZ SCT020 BKN150
     FM012000 36010G16KT 6SM FU HZ SCT040 SCT200
     FM020200 28009KT P6SM SCT100 BKN200=



000
FTUS46 KOTX 010520
TAFSFF
TAF
KSFF 010520Z 0106/0206 21007KT P6SM SCT120 BKN200
     FM011900 21010G18KT P6SM SCT060 BKN150
     FM020200 22006KT P6SM FEW070 SCT120 BKN200=



000
FTUS46 KOTX 010520
TAFLWS
TAF
KLWS 010520Z 0106/0206 21005KT P6SM SCT150
     FM011200 14003KT 5SM FU HZ SCT020 BKN150
     FM012000 36010G16KT 6SM FU HZ SCT040 SCT200
     FM020200 28009KT P6SM SCT100 BKN200=



000
FTUS46 KOTX 010408 AAA
TAFEAT
TAF AMD
KEAT 010408Z 0104/0124 27016G24KT P6SM BKN120
     FM011000 29007KT P6SM SCT080 BKN120
     FM012000 13005KT P6SM SCT060 BKN080 BKN120
     FM012300 27009KT P6SM BKN060 OVC100=



000
FTUS46 KOTX 010408 AAA
TAFEAT
TAF AMD
KEAT 010408Z 0104/0124 27016G24KT P6SM BKN120
     FM011000 29007KT P6SM SCT080 BKN120
     FM012000 13005KT P6SM SCT060 BKN080 BKN120
     FM012300 27009KT P6SM BKN060 OVC100=



000
FTUS46 KOTX 010408 AAA
TAFEAT
TAF AMD
KEAT 010408Z 0104/0124 27016G24KT P6SM BKN120
     FM011000 29007KT P6SM SCT080 BKN120
     FM012000 13005KT P6SM SCT060 BKN080 BKN120
     FM012300 27009KT P6SM BKN060 OVC100=



000
FTUS46 KOTX 010408 AAA
TAFEAT
TAF AMD
KEAT 010408Z 0104/0124 27016G24KT P6SM BKN120
     FM011000 29007KT P6SM SCT080 BKN120
     FM012000 13005KT P6SM SCT060 BKN080 BKN120
     FM012300 27009KT P6SM BKN060 OVC100=



000
FTUS46 KOTX 010405 AAA
TAFPUW
TAF AMD
KPUW 010405Z 0104/0124 23004KT P6SM SCT150 BKN250
     FM011600 20008KT P6SM BKN150
     FM012000 25012G18KT P6SM SCT060 SCT150=



000
FTUS46 KOTX 010405 AAA
TAFPUW
TAF AMD
KPUW 010405Z 0104/0124 23004KT P6SM SCT150 BKN250
     FM011600 20008KT P6SM BKN150
     FM012000 25012G18KT P6SM SCT060 SCT150=



000
FTUS46 KOTX 312320
TAFCOE
TAF
KCOE 312320Z 0100/0124 20011G18KT P6SM SCT060 BKN090 OVC250
     FM010300 19008KT P6SM BKN100 BKN250
     FM011900 22010G18KT P6SM SCT060 BKN150
      AMD LTD TO CLD AND VIS=



000
FTUS46 KOTX 312320
TAFSFF
TAF
KSFF 312320Z 0100/0124 22008G16KT P6SM SCT060 BKN080 BKN250
     FM010200 21005KT P6SM SCT080 BKN110
     FM010800 21007KT P6SM BKN250
     FM011900 21010G18KT P6SM SCT060 BKN150=



000
FTUS46 KOTX 312320
TAFCOE
TAF
KCOE 312320Z 0100/0124 20011G18KT P6SM SCT060 BKN090 OVC250
     FM010300 19008KT P6SM BKN100 BKN250
     FM011900 22010G18KT P6SM SCT060 BKN150
      AMD LTD TO CLD AND VIS=



000
FTUS46 KOTX 312320
TAFPUW
TAF
KPUW 312320Z 0100/0124 23008KT P6SM SCT080 BKN150 BKN250
     FM010400 23003KT 5SM FU HZ BKN050
     FM011200 19007KT 6SM FU HZ BKN050
     FM012000 25012G18KT P6SM SCT060 SCT150=



000
FTUS46 KOTX 312320
TAFLWS
TAF
KLWS 312320Z 0100/0124 31009KT P6SM SCT070 BKN150
     FM010900 12003KT 4SM FU HZ SCT020 SCT200
     FM012000 36010KT 6SM FU HZ SCT040 SCT200=



000
FTUS46 KOTX 312320
TAFEAT
TAF
KEAT 312320Z 0100/0124 30014KT P6SM BKN120
     FM011000 29007KT P6SM SCT080 BKN120
     FM012000 13005KT P6SM SCT060 BKN080 BKN120
     FM012300 27009KT P6SM BKN060 OVC100=



000
FTUS46 KOTX 312320
TAFEAT
TAF
KEAT 312320Z 0100/0124 30014KT P6SM BKN120
     FM011000 29007KT P6SM SCT080 BKN120
     FM012000 13005KT P6SM SCT060 BKN080 BKN120
     FM012300 27009KT P6SM BKN060 OVC100=



000
FTUS46 KOTX 312320
TAFSFF
TAF
KSFF 312320Z 0100/0124 22008G16KT P6SM SCT060 BKN080 BKN250
     FM010200 21005KT P6SM SCT080 BKN110
     FM010800 21007KT P6SM BKN250
     FM011900 21010G18KT P6SM SCT060 BKN150=



000
FTUS46 KOTX 312320
TAFGEG
TAF
KGEG 312320Z 0100/0124 20013G19KT P6SM SCT060 BKN080 BKN250
     FM010200 20010KT P6SM SCT080 BKN110
     FM010800 20010KT P6SM SCT150 BKN250
     FM011900 21012G20KT P6SM SCT060 BKN150=



000
FTUS46 KOTX 312320
TAFGEG
TAF
KGEG 312320Z 0100/0124 20013G19KT P6SM SCT060 BKN080 BKN250
     FM010200 20010KT P6SM SCT080 BKN110
     FM010800 20010KT P6SM SCT150 BKN250
     FM011900 21012G20KT P6SM SCT060 BKN150=



000
FTUS46 KOTX 312320
TAFMWH
TAF
KMWH 312320Z 0100/0124 20010G16KT P6SM BKN070 BKN150
     FM010200 23008KT P6SM SCT100 BKN150
     FM010800 20005KT P6SM SCT150
     FM011900 19012G18KT P6SM FEW060 BKN150=



000
FTUS46 KOTX 312320
TAFPUW
TAF
KPUW 312320Z 0100/0124 23008KT P6SM SCT080 BKN150 BKN250
     FM010400 23003KT 5SM FU HZ BKN050
     FM011200 19007KT 6SM FU HZ BKN050
     FM012000 25012G18KT P6SM SCT060 SCT150=



000
FTUS46 KOTX 311853 AAA
TAFCOE
TAF AMD
KCOE 311853Z 3119/0118 20011G18KT P6SM BKN050 BKN090
     FM010300 20009KT P6SM BKN100 BKN250
      AMD LTD TO CLD AND VIS=



000
FTUS46 KOTX 311853 AAA
TAFCOE
TAF AMD
KCOE 311853Z 3119/0118 20011G18KT P6SM BKN050 BKN090
     FM010300 20009KT P6SM BKN100 BKN250
      AMD LTD TO CLD AND VIS=



000
FTUS46 KOTX 311853 AAA
TAFCOE
TAF AMD
KCOE 311853Z 3119/0118 20011G18KT P6SM BKN050 BKN090
     FM010300 20009KT P6SM BKN100 BKN250
      AMD LTD TO CLD AND VIS=



000
FTUS46 KOTX 311853 AAA
TAFCOE
TAF AMD
KCOE 311853Z 3119/0118 20011G18KT P6SM BKN050 BKN090
     FM010300 20009KT P6SM BKN100 BKN250
      AMD LTD TO CLD AND VIS=



000
FTUS46 KOTX 311740 CCA
TAFLWS
TAF COR
KLWS 311740Z 3118/0118 04003KT P6SM FEW150 BKN250
     FM312200 31010KT P6SM SCT070 BKN150
     FM011100 12003KT 4SM FU HZ SCT020 SCT200=



000
FTUS46 KOTX 311740 CCA
TAFLWS
TAF COR
KLWS 311740Z 3118/0118 04003KT P6SM FEW150 BKN250
     FM312200 31010KT P6SM SCT070 BKN150
     FM011100 12003KT 4SM FU HZ SCT020 SCT200=



000
FTUS46 KOTX 311740 CCA
TAFLWS
TAF COR
KLWS 311740Z 3118/0118 04003KT P6SM FEW150 BKN250
     FM312200 31010KT P6SM SCT070 BKN150
     FM011100 12003KT 4SM FU HZ SCT020 SCT200=



000
FTUS46 KOTX 311740 CCA
TAFLWS
TAF COR
KLWS 311740Z 3118/0118 04003KT P6SM FEW150 BKN250
     FM312200 31010KT P6SM SCT070 BKN150
     FM011100 12003KT 4SM FU HZ SCT020 SCT200=



000
FTUS46 KOTX 311737
TAFSFF
TAF
KSFF 311737Z 3118/0118 20011G17KT P6SM BKN080 BKN250
     FM010200 21006KT P6SM SCT080 BKN110
     FM010700 21007KT P6SM BKN250=



000
FTUS46 KOTX 311737
TAFPUW
TAF
KPUW 311737Z 3118/0118 19008KT P6SM FEW050 SCT120 BKN250
     FM311900 23008G14KT P6SM SCT130 BKN250
     FM010200 23006KT P6SM FEW150 SCT200
      TEMPO 0104/0108 5SM FU HZ BKN050
     FM011200 19007KT 6SM FU HZ BKN050=



000
FTUS46 KOTX 311737
TAFCOE
TAF
KCOE 311737Z 3118/0118 22011G18KT P6SM BKN050 BKN090
     FM010300 20009KT P6SM BKN100 BKN250
      AMD LTD TO CLD AND VIS=



000
FTUS46 KOTX 311737
TAFLWS
TAF
KLWS 311737Z 3118/0118 04003KT P6SM FEW150 BKN250
     FM312200 31010KT P6SM SCT070 BKN150
      TEMPO 0100/0104 5SM FU HZ SCT019 SCT070 BKN150
     FM010400 29008KT 3SM FU HZ SCT019 SCT200=



000
FTUS46 KOTX 311737
TAFEAT
TAF
KEAT 311737Z 3118/0118 VRB04KT P6SM FEW070 BKN120
     FM312100 29011KT P6SM SCT120 BKN200
     FM010000 30014KT P6SM SCT150
     FM011000 29009KT P6SM SCT080 BKN120=



000
FTUS46 KOTX 311737
TAFMWH
TAF
KMWH 311737Z 3118/0118 17011KT P6SM SCT080 BKN120 OVC250
     FM312100 20012G19KT P6SM BKN100
     FM010300 23008KT P6SM SCT100 BKN150=



000
FTUS46 KOTX 311737
TAFMWH
TAF

FM010800
 19007KY P6SM SCT150=



000
FTUS46 KOTX 311737
TAFGEG
TAF
KGEG 311737Z 3118/0118 20013G19KT P6SM BKN080 BKN250
     FM010200 20010KT P6SM SCT080 BKN110
     FM010500 21010KT P6SM BKN250=



000
FTUS46 KOTX 311737
TAFEAT
TAF
KEAT 311737Z 3118/0118 VRB04KT P6SM FEW070 BKN120
     FM312100 29011KT P6SM SCT120 BKN200
     FM010000 30014KT P6SM SCT150
     FM011000 29009KT P6SM SCT080 BKN120=



000
FTUS46 KOTX 311737
TAFCOE
TAF
KCOE 311737Z 3118/0118 22011G18KT P6SM BKN050 BKN090
     FM010300 20009KT P6SM BKN100 BKN250
      AMD LTD TO CLD AND VIS=



000
FTUS46 KOTX 311737
TAFGEG
TAF
KGEG 311737Z 3118/0118 20013G19KT P6SM BKN080 BKN250
     FM010200 20010KT P6SM SCT080 BKN110
     FM010500 21010KT P6SM BKN250=



000
FTUS46 KOTX 311737
TAFPUW
TAF
KPUW 311737Z 3118/0118 19008KT P6SM FEW050 SCT120 BKN250
     FM311900 23008G14KT P6SM SCT130 BKN250
     FM010200 23006KT P6SM FEW150 SCT200
      TEMPO 0104/0108 5SM FU HZ BKN050
     FM011200 19007KT 6SM FU HZ BKN050=



000
FTUS46 KOTX 311737
TAFLWS
TAF
KLWS 311737Z 3118/0118 04003KT P6SM FEW150 BKN250
     FM312200 31010KT P6SM SCT070 BKN150
      TEMPO 0100/0104 5SM FU HZ SCT019 SCT070 BKN150
     FM010400 29008KT 3SM FU HZ SCT019 SCT200=



000
FTUS46 KOTX 311737
TAFSFF
TAF
KSFF 311737Z 3118/0118 20011G17KT P6SM BKN080 BKN250
     FM010200 21006KT P6SM SCT080 BKN110
     FM010700 21007KT P6SM BKN250=



000
FTUS46 KOTX 311737
TAFMWH
TAF

FM010800
 19007KY P6SM SCT150=



000
FTUS46 KOTX 311737
TAFMWH
TAF
KMWH 311737Z 3118/0118 17011KT P6SM SCT080 BKN120 OVC250
     FM312100 20012G19KT P6SM BKN100
     FM010300 23008KT P6SM SCT100 BKN150=



000
FTUS46 KOTX 311125
TAFGEG
TAF
KGEG 311125Z 3112/0112 19010KT P6SM BKN035 OVC070
     FM311500 19013KT P6SM SCT030 BKN060
     FM311800 21014G20KT P6SM SCT040 BKN070 BKN100
     FM010200 20009KT P6SM SCT060 BKN100
     FM010500 23007KT P6SM BKN250=



000
FTUS46 KOTX 311125
TAFCOE
TAF
KCOE 311125Z 3112/0112 20007KT P6SM BKN035 OVC040
     FM311500 19009KT P6SM SCT030 BKN040 OVC060
     FM312000 20012KT P6SM SCT050 BKN100
     FM010400 20009KT P6SM BKN250
      AMD LTD TO CLD AND VIS=



000
FTUS46 KOTX 311125
TAFPUW
TAF
KPUW 311125Z 3112/0112 20004KT 6SM FU HZ FEW070 BKN150
      TEMPO 3112/3116 3SM FU HZ SCT019 BKN070 BKN150
     FM311600 23012KT P6SM FEW050 SCT080 BKN150
     FM010200 26005KT P6SM BKN100 OVC150
      TEMPO 0102/0105 5SM FU HZ SCT019 BKN100 OVC150
     FM010500 24006KT 3SM FU HZ SCT019 SCT200=



000
FTUS46 KOTX 311125
TAFSFF
TAF
KSFF 311125Z 3112/0112 21005KT P6SM BKN035 OVC080
     FM311500 21008KT P6SM SCT030 BKN060
     FM311900 21012G18KT P6SM SCT040 BKN070 BKN100
     FM010200 21005KT P6SM SCT060 BKN100
     FM010500 23007KT P6SM BKN250=



000
FTUS46 KOTX 311125
TAFMWH
TAF
KMWH 311125Z 3112/0112 20007KT P6SM SCT080 BKN100
     FM311900 19012G20KT P6SM SCT060 BKN090
     FM010100 20008KT P6SM SCT100 BKN150
     FM010300 24007KT P6SM SCT200=



000
FTUS46 KOTX 311125
TAFEAT
TAF
KEAT 311125Z 3112/0112 33004KT P6SM BKN100 OVC150
     FM311800 14008KT P6SM SCT050 BKN090 BKN150
     FM010200 29010KT P6SM SCT080 BKN120
     FM010600 29009KT P6SM SKC=



000
FTUS46 KOTX 311125
TAFGEG
TAF
KGEG 311125Z 3112/0112 19010KT P6SM BKN035 OVC070
     FM311500 19013KT P6SM SCT030 BKN060
     FM311800 21014G20KT P6SM SCT040 BKN070 BKN100
     FM010200 20009KT P6SM SCT060 BKN100
     FM010500 23007KT P6SM BKN250=



000
FTUS46 KOTX 311125
TAFLWS
TAF
KLWS 311125Z 3112/0112 VRB04KT 6SM FU HZ SCT070 BKN100
      TEMPO 3112/3116 3SM FU HZ SCT019 BKN070 BKN150
     FM311900 02006KT P6SM SCT060 SCT200
     FM010000 31010KT P6SM SCT070 BKN150
      TEMPO 0100/0104 5SM FU HZ SCT019 SCT070 BKN150
     FM010400 29008KT 3SM FU HZ SCT019 SCT200=



000
FTUS46 KOTX 311125
TAFPUW
TAF
KPUW 311125Z 3112/0112 20004KT 6SM FU HZ FEW070 BKN150
      TEMPO 3112/3116 3SM FU HZ SCT019 BKN070 BKN150
     FM311600 23012KT P6SM FEW050 SCT080 BKN150
     FM010200 26005KT P6SM BKN100 OVC150
      TEMPO 0102/0105 5SM FU HZ SCT019 BKN100 OVC150
     FM010500 24006KT 3SM FU HZ SCT019 SCT200=



000
FTUS46 KOTX 311125
TAFMWH
TAF
KMWH 311125Z 3112/0112 20007KT P6SM SCT080 BKN100
     FM311900 19012G20KT P6SM SCT060 BKN090
     FM010100 20008KT P6SM SCT100 BKN150
     FM010300 24007KT P6SM SCT200=



000
FTUS46 KOTX 311125
TAFCOE
TAF
KCOE 311125Z 3112/0112 20007KT P6SM BKN035 OVC040
     FM311500 19009KT P6SM SCT030 BKN040 OVC060
     FM312000 20012KT P6SM SCT050 BKN100
     FM010400 20009KT P6SM BKN250
      AMD LTD TO CLD AND VIS=



000
FTUS46 KOTX 311125
TAFSFF
TAF
KSFF 311125Z 3112/0112 21005KT P6SM BKN035 OVC080
     FM311500 21008KT P6SM SCT030 BKN060
     FM311900 21012G18KT P6SM SCT040 BKN070 BKN100
     FM010200 21005KT P6SM SCT060 BKN100
     FM010500 23007KT P6SM BKN250=



000
FTUS46 KOTX 311125
TAFPUW
TAF
KPUW 311125Z 3112/0112 20004KT 6SM FU HZ FEW070 BKN150
      TEMPO 3112/3116 3SM FU HZ SCT019 BKN070 BKN150
     FM311600 23012KT P6SM FEW050 SCT080 BKN150
     FM010200 26005KT P6SM BKN100 OVC150
      TEMPO 0102/0105 5SM FU HZ SCT019 BKN100 OVC150
     FM010500 24006KT 3SM FU HZ SCT019 SCT200=



000
FTUS46 KOTX 311125
TAFLWS
TAF
KLWS 311125Z 3112/0112 VRB04KT 6SM FU HZ SCT070 BKN100
      TEMPO 3112/3116 3SM FU HZ SCT019 BKN070 BKN150
     FM311900 02006KT P6SM SCT060 SCT200
     FM010000 31010KT P6SM SCT070 BKN150
      TEMPO 0100/0104 5SM FU HZ SCT019 SCT070 BKN150
     FM010400 29008KT 3SM FU HZ SCT019 SCT200=



000
FTUS46 KOTX 311125
TAFMWH
TAF
KMWH 311125Z 3112/0112 20007KT P6SM SCT080 BKN100
     FM311900 19012G20KT P6SM SCT060 BKN090
     FM010100 20008KT P6SM SCT100 BKN150
     FM010300 24007KT P6SM SCT200=



000
FTUS46 KOTX 311125
TAFCOE
TAF
KCOE 311125Z 3112/0112 20007KT P6SM BKN035 OVC040
     FM311500 19009KT P6SM SCT030 BKN040 OVC060
     FM312000 20012KT P6SM SCT050 BKN100
     FM010400 20009KT P6SM BKN250
      AMD LTD TO CLD AND VIS=



000
FTUS46 KOTX 311125
TAFGEG
TAF
KGEG 311125Z 3112/0112 19010KT P6SM BKN035 OVC070
     FM311500 19013KT P6SM SCT030 BKN060
     FM311800 21014G20KT P6SM SCT040 BKN070 BKN100
     FM010200 20009KT P6SM SCT060 BKN100
     FM010500 23007KT P6SM BKN250=



000
FTUS46 KOTX 311125
TAFSFF
TAF
KSFF 311125Z 3112/0112 21005KT P6SM BKN035 OVC080
     FM311500 21008KT P6SM SCT030 BKN060
     FM311900 21012G18KT P6SM SCT040 BKN070 BKN100
     FM010200 21005KT P6SM SCT060 BKN100
     FM010500 23007KT P6SM BKN250=



000
FTUS46 KOTX 311125
TAFEAT
TAF
KEAT 311125Z 3112/0112 33004KT P6SM BKN100 OVC150
     FM311800 14008KT P6SM SCT050 BKN090 BKN150
     FM010200 29010KT P6SM SCT080 BKN120
     FM010600 29009KT P6SM SKC=



000
FTUS46 KOTX 311125
TAFCOE
TAF
KCOE 311125Z 3112/0112 20007KT P6SM BKN035 OVC040
     FM311500 19009KT P6SM SCT030 BKN040 OVC060
     FM312000 20012KT P6SM SCT050 BKN100
     FM010400 20009KT P6SM BKN250
      AMD LTD TO CLD AND VIS=



000
FTUS46 KOTX 311125
TAFSFF
TAF
KSFF 311125Z 3112/0112 21005KT P6SM BKN035 OVC080
     FM311500 21008KT P6SM SCT030 BKN060
     FM311900 21012G18KT P6SM SCT040 BKN070 BKN100
     FM010200 21005KT P6SM SCT060 BKN100
     FM010500 23007KT P6SM BKN250=



000
FTUS46 KOTX 311125
TAFMWH
TAF
KMWH 311125Z 3112/0112 20007KT P6SM SCT080 BKN100
     FM311900 19012G20KT P6SM SCT060 BKN090
     FM010100 20008KT P6SM SCT100 BKN150
     FM010300 24007KT P6SM SCT200=



000
FTUS46 KOTX 311125
TAFLWS
TAF
KLWS 311125Z 3112/0112 VRB04KT 6SM FU HZ SCT070 BKN100
      TEMPO 3112/3116 3SM FU HZ SCT019 BKN070 BKN150
     FM311900 02006KT P6SM SCT060 SCT200
     FM010000 31010KT P6SM SCT070 BKN150
      TEMPO 0100/0104 5SM FU HZ SCT019 SCT070 BKN150
     FM010400 29008KT 3SM FU HZ SCT019 SCT200=



000
FTUS46 KOTX 311125
TAFGEG
TAF
KGEG 311125Z 3112/0112 19010KT P6SM BKN035 OVC070
     FM311500 19013KT P6SM SCT030 BKN060
     FM311800 21014G20KT P6SM SCT040 BKN070 BKN100
     FM010200 20009KT P6SM SCT060 BKN100
     FM010500 23007KT P6SM BKN250=



000
FTUS46 KOTX 311125
TAFPUW
TAF
KPUW 311125Z 3112/0112 20004KT 6SM FU HZ FEW070 BKN150
      TEMPO 3112/3116 3SM FU HZ SCT019 BKN070 BKN150
     FM311600 23012KT P6SM FEW050 SCT080 BKN150
     FM010200 26005KT P6SM BKN100 OVC150
      TEMPO 0102/0105 5SM FU HZ SCT019 BKN100 OVC150
     FM010500 24006KT 3SM FU HZ SCT019 SCT200=



000
FTUS46 KOTX 311125
TAFEAT
TAF
KEAT 311125Z 3112/0112 33004KT P6SM BKN100 OVC150
     FM311800 14008KT P6SM SCT050 BKN090 BKN150
     FM010200 29010KT P6SM SCT080 BKN120
     FM010600 29009KT P6SM SKC=



000
FTUS46 KOTX 311125
TAFLWS
TAF
KLWS 311125Z 3112/0112 VRB04KT 6SM FU HZ SCT070 BKN100
      TEMPO 3112/3116 3SM FU HZ SCT019 BKN070 BKN150
     FM311900 02006KT P6SM SCT060 SCT200
     FM010000 31010KT P6SM SCT070 BKN150
      TEMPO 0100/0104 5SM FU HZ SCT019 SCT070 BKN150
     FM010400 29008KT 3SM FU HZ SCT019 SCT200=



000
FTUS46 KOTX 311125
TAFEAT
TAF
KEAT 311125Z 3112/0112 33004KT P6SM BKN100 OVC150
     FM311800 14008KT P6SM SCT050 BKN090 BKN150
     FM010200 29010KT P6SM SCT080 BKN120
     FM010600 29009KT P6SM SKC=



000
FTUS46 KOTX 310520
TAFCOE
TAF
KCOE 310520Z 3106/0106 21008KT P6SM SCT080
     FM311200 20007KT P6SM BKN025 OVC040
     FM311500 19009KT P6SM SCT030 BKN040 OVC060
     FM312000 20012KT P6SM SCT050 BKN100
      AMD LTD TO CLD AND VIS=



000
FTUS46 KOTX 310520
TAFMWH
TAF
KMWH 310520Z 3106/0106 20007KT P6SM SCT080 BKN100
     FM311900 19012G20KT P6SM SCT060 BKN090
     FM010100 20008KT P6SM SCT100 BKN150=



000
FTUS46 KOTX 310520
TAFMWH
TAF
KMWH 310520Z 3106/0106 20007KT P6SM SCT080 BKN100
     FM311900 19012G20KT P6SM SCT060 BKN090
     FM010100 20008KT P6SM SCT100 BKN150=



000
FTUS46 KOTX 310520
TAFLWS
TAF
KLWS 310520Z 3106/0106 VRB04KT P6SM SCT070 BKN100
     FM311900 02006KT P6SM SCT060 SCT200
     FM010000 31010KT P6SM SCT070 BKN150=



000
FTUS46 KOTX 310520
TAFGEG
TAF
KGEG 310520Z 3106/0106 21010KT P6SM FEW080 SCT150
     FM311200 19010KT P6SM BKN030 OVC070
     FM311500 19013KT P6SM SCT030 BKN060
     FM311800 21014G20KT P6SM SCT040 BKN070 BKN100
     FM010200 20009KT P6SM SCT060 BKN100=



000
FTUS46 KOTX 310520
TAFEAT
TAF
KEAT 310520Z 3106/0106 29008KT P6SM SCT090 BKN150
     FM311000 33004KT P6SM BKN100 OVC150
     FM311800 14008KT P6SM SCT050 BKN090 BKN150
     FM010200 29010KT P6SM SCT080 BKN120=



000
FTUS46 KOTX 310520
TAFSFF
TAF
KSFF 310520Z 3106/0106 20006KT P6SM FEW080 SCT150
     FM311200 21005KT P6SM BKN030 OVC080
     FM311500 21008KT P6SM SCT030 BKN060
     FM311900 21012G18KT P6SM SCT040 BKN070 BKN100
     FM010200 21005KT P6SM SCT060 BKN100=



000
FTUS46 KOTX 310520
TAFSFF
TAF
KSFF 310520Z 3106/0106 20006KT P6SM FEW080 SCT150
     FM311200 21005KT P6SM BKN030 OVC080
     FM311500 21008KT P6SM SCT030 BKN060
     FM311900 21012G18KT P6SM SCT040 BKN070 BKN100
     FM010200 21005KT P6SM SCT060 BKN100=



000
FTUS46 KOTX 310520
TAFCOE
TAF
KCOE 310520Z 3106/0106 21008KT P6SM SCT080
     FM311200 20007KT P6SM BKN025 OVC040
     FM311500 19009KT P6SM SCT030 BKN040 OVC060
     FM312000 20012KT P6SM SCT050 BKN100
      AMD LTD TO CLD AND VIS=



000
FTUS46 KOTX 310520
TAFGEG
TAF
KGEG 310520Z 3106/0106 21010KT P6SM FEW080 SCT150
     FM311200 19010KT P6SM BKN030 OVC070
     FM311500 19013KT P6SM SCT030 BKN060
     FM311800 21014G20KT P6SM SCT040 BKN070 BKN100
     FM010200 20009KT P6SM SCT060 BKN100=



000
FTUS46 KOTX 310520
TAFGEG
TAF
KGEG 310520Z 3106/0106 21010KT P6SM FEW080 SCT150
     FM311200 19010KT P6SM BKN030 OVC070
     FM311500 19013KT P6SM SCT030 BKN060
     FM311800 21014G20KT P6SM SCT040 BKN070 BKN100
     FM010200 20009KT P6SM SCT060 BKN100=



000
FTUS46 KOTX 310520
TAFMWH
TAF
KMWH 310520Z 3106/0106 20007KT P6SM SCT080 BKN100
     FM311900 19012G20KT P6SM SCT060 BKN090
     FM010100 20008KT P6SM SCT100 BKN150=



000
FTUS46 KOTX 310520
TAFCOE
TAF
KCOE 310520Z 3106/0106 21008KT P6SM SCT080
     FM311200 20007KT P6SM BKN025 OVC040
     FM311500 19009KT P6SM SCT030 BKN040 OVC060
     FM312000 20012KT P6SM SCT050 BKN100
      AMD LTD TO CLD AND VIS=



000
FTUS46 KOTX 310520
TAFGEG
TAF
KGEG 310520Z 3106/0106 21010KT P6SM FEW080 SCT150
     FM311200 19010KT P6SM BKN030 OVC070
     FM311500 19013KT P6SM SCT030 BKN060
     FM311800 21014G20KT P6SM SCT040 BKN070 BKN100
     FM010200 20009KT P6SM SCT060 BKN100=



000
FTUS46 KOTX 310520
TAFLWS
TAF
KLWS 310520Z 3106/0106 VRB04KT P6SM SCT070 BKN100
     FM311900 02006KT P6SM SCT060 SCT200
     FM010000 31010KT P6SM SCT070 BKN150=



000
FTUS46 KOTX 310520
TAFPUW
TAF
KPUW 310520Z 3106/0106 23008KT P6SM SCT070 SCT180
     FM311200 20006KT P6SM FEW070 BKN150
     FM311600 23012KT P6SM FEW050 SCT080 BKN150
     FM010200 26005KT P6SM BKN100 OVC150=



000
FTUS46 KOTX 310520
TAFSFF
TAF
KSFF 310520Z 3106/0106 20006KT P6SM FEW080 SCT150
     FM311200 21005KT P6SM BKN030 OVC080
     FM311500 21008KT P6SM SCT030 BKN060
     FM311900 21012G18KT P6SM SCT040 BKN070 BKN100
     FM010200 21005KT P6SM SCT060 BKN100=



000
FTUS46 KOTX 310520
TAFCOE
TAF
KCOE 310520Z 3106/0106 21008KT P6SM SCT080
     FM311200 20007KT P6SM BKN025 OVC040
     FM311500 19009KT P6SM SCT030 BKN040 OVC060
     FM312000 20012KT P6SM SCT050 BKN100
      AMD LTD TO CLD AND VIS=



000
FTUS46 KOTX 310520
TAFSFF
TAF
KSFF 310520Z 3106/0106 20006KT P6SM FEW080 SCT150
     FM311200 21005KT P6SM BKN030 OVC080
     FM311500 21008KT P6SM SCT030 BKN060
     FM311900 21012G18KT P6SM SCT040 BKN070 BKN100
     FM010200 21005KT P6SM SCT060 BKN100=



000
FTUS46 KOTX 310520
TAFPUW
TAF
KPUW 310520Z 3106/0106 23008KT P6SM SCT070 SCT180
     FM311200 20006KT P6SM FEW070 BKN150
     FM311600 23012KT P6SM FEW050 SCT080 BKN150
     FM010200 26005KT P6SM BKN100 OVC150=



000
FTUS46 KOTX 310520
TAFEAT
TAF
KEAT 310520Z 3106/0106 29008KT P6SM SCT090 BKN150
     FM311000 33004KT P6SM BKN100 OVC150
     FM311800 14008KT P6SM SCT050 BKN090 BKN150
     FM010200 29010KT P6SM SCT080 BKN120=



000
FTUS46 KOTX 310520
TAFEAT
TAF
KEAT 310520Z 3106/0106 29008KT P6SM SCT090 BKN150
     FM311000 33004KT P6SM BKN100 OVC150
     FM311800 14008KT P6SM SCT050 BKN090 BKN150
     FM010200 29010KT P6SM SCT080 BKN120=



000
FTUS46 KOTX 310520
TAFPUW
TAF
KPUW 310520Z 3106/0106 23008KT P6SM SCT070 SCT180
     FM311200 20006KT P6SM FEW070 BKN150
     FM311600 23012KT P6SM FEW050 SCT080 BKN150
     FM010200 26005KT P6SM BKN100 OVC150=



000
FTUS46 KOTX 310520
TAFLWS
TAF
KLWS 310520Z 3106/0106 VRB04KT P6SM SCT070 BKN100
     FM311900 02006KT P6SM SCT060 SCT200
     FM010000 31010KT P6SM SCT070 BKN150=



000
FTUS46 KOTX 310520
TAFMWH
TAF
KMWH 310520Z 3106/0106 20007KT P6SM SCT080 BKN100
     FM311900 19012G20KT P6SM SCT060 BKN090
     FM010100 20008KT P6SM SCT100 BKN150=



000
FTUS46 KOTX 310520
TAFEAT
TAF
KEAT 310520Z 3106/0106 29008KT P6SM SCT090 BKN150
     FM311000 33004KT P6SM BKN100 OVC150
     FM311800 14008KT P6SM SCT050 BKN090 BKN150
     FM010200 29010KT P6SM SCT080 BKN120=



000
FTUS46 KOTX 310520
TAFPUW
TAF
KPUW 310520Z 3106/0106 23008KT P6SM SCT070 SCT180
     FM311200 20006KT P6SM FEW070 BKN150
     FM311600 23012KT P6SM FEW050 SCT080 BKN150
     FM010200 26005KT P6SM BKN100 OVC150=



000
FTUS46 KOTX 310520
TAFLWS
TAF
KLWS 310520Z 3106/0106 VRB04KT P6SM SCT070 BKN100
     FM311900 02006KT P6SM SCT060 SCT200
     FM010000 31010KT P6SM SCT070 BKN150=



000
FTUS46 KOTX 302321
TAFPUW
TAF
KPUW 302321Z 3100/3124 25016G24KT P6SM VCSH SCT070 BKN090
     FM310300 23008KT P6SM FEW070 SCT180
     FM311200 20006KT P6SM SCT030 BKN150
     FM311600 23012KT P6SM FEW050 SCT080 BKN150=



000
FTUS46 KOTX 302321
TAFCOE
TAF
KCOE 302321Z 3100/3124 19012G19KT P6SM -SHRA VCTS BKN040CB BKN060
     FM310100 21012G18KT P6SM VCSH SCT050 BKN080
     FM310300 21008KT P6SM BKN080
     FM311000 20008KT P6SM SCT015 BKN025 OVC040
     FM311700 19010KT P6SM SCT030 BKN040 OVC060
     FM312000 20012KT P6SM SCT050 BKN100
      AMD LTD TO CLD AND VIS=



000
FTUS46 KOTX 302321
TAFMWH
TAF
KMWH 302321Z 3100/3124 23017G22KT P6SM SCT090 SCT150
     FM310200 21010KT P6SM SCT200
     FM310800 20007KT P6SM FEW030 SCT080 BKN100
     FM311800 19012G20KT P6SM SCT060 BKN090=



000
FTUS46 KOTX 302321
TAFGEG
TAF
KGEG 302321Z 3100/3124 22018G24KT P6SM VCSH SCT030 BKN050 BKN070
     FM310200 21015KT P6SM SCT050 SCT150
     FM311000 19010KT P6SM SCT020 BKN030 OVC050
     FM311600 19013KT P6SM SCT030 BKN060
     FM311800 21014G20KT P6SM SCT040 BKN070 BKN100=



000
FTUS46 KOTX 302321
TAFEAT
TAF
KEAT 302321Z 3100/3124 29014G21KT P6SM SCT070 SCT200
     FM310300 30008KT P6SM SCT090 BKN150
     FM311800 14005KT P6SM SCT050 BKN090 BKN150=



000
FTUS46 KOTX 302321
TAFCOE
TAF
KCOE 302321Z 3100/3124 19012G19KT P6SM -SHRA VCTS BKN040CB BKN060
     FM310100 21012G18KT P6SM VCSH SCT050 BKN080
     FM310300 21008KT P6SM BKN080
     FM311000 20008KT P6SM SCT015 BKN025 OVC040
     FM311700 19010KT P6SM SCT030 BKN040 OVC060
     FM312000 20012KT P6SM SCT050 BKN100
      AMD LTD TO CLD AND VIS=



000
FTUS46 KOTX 302321
TAFLWS
TAF
KLWS 302321Z 3100/3124 28011G16KT P6SM VCSH SCT070 BKN090
     FM310200 22008KT P6SM FEW080 SCT150
     FM311000 VRB04KT P6SM FEW025 SCT150
     FM311900 02006KT P6SM SCT060 SCT200=



000
FTUS46 KOTX 302321
TAFEAT
TAF
KEAT 302321Z 3100/3124 29014G21KT P6SM SCT070 SCT200
     FM310300 30008KT P6SM SCT090 BKN150
     FM311800 14005KT P6SM SCT050 BKN090 BKN150=



000
FTUS46 KOTX 302321
TAFPUW
TAF
KPUW 302321Z 3100/3124 25016G24KT P6SM VCSH SCT070 BKN090
     FM310300 23008KT P6SM FEW070 SCT180
     FM311200 20006KT P6SM SCT030 BKN150
     FM311600 23012KT P6SM FEW050 SCT080 BKN150=



000
FTUS46 KOTX 302321
TAFCOE
TAF
KCOE 302321Z 3100/3124 19012G19KT P6SM -SHRA VCTS BKN040CB BKN060
     FM310100 21012G18KT P6SM VCSH SCT050 BKN080
     FM310300 21008KT P6SM BKN080
     FM311000 20008KT P6SM SCT015 BKN025 OVC040
     FM311700 19010KT P6SM SCT030 BKN040 OVC060
     FM312000 20012KT P6SM SCT050 BKN100
      AMD LTD TO CLD AND VIS=



000
FTUS46 KOTX 302321
TAFSFF
TAF
KSFF 302321Z 3100/3124 22014G21KT P6SM VCSH SCT030 BKN070
     FM310200 22009KT P6SM SCT060 SCT150
     FM311000 21005KT P6SM SCT020 BKN030 OVC050
     FM311600 21010KT P6SM SCT030 BKN060
     FM311900 21012G18KT P6SM SCT040 BKN070 BKN100=



000
FTUS46 KOTX 302321
TAFGEG
TAF
KGEG 302321Z 3100/3124 22018G24KT P6SM VCSH SCT030 BKN050 BKN070
     FM310200 21015KT P6SM SCT050 SCT150
     FM311000 19010KT P6SM SCT020 BKN030 OVC050
     FM311600 19013KT P6SM SCT030 BKN060
     FM311800 21014G20KT P6SM SCT040 BKN070 BKN100=



000
FTUS46 KOTX 302321
TAFSFF
TAF
KSFF 302321Z 3100/3124 22014G21KT P6SM VCSH SCT030 BKN070
     FM310200 22009KT P6SM SCT060 SCT150
     FM311000 21005KT P6SM SCT020 BKN030 OVC050
     FM311600 21010KT P6SM SCT030 BKN060
     FM311900 21012G18KT P6SM SCT040 BKN070 BKN100=



000
FTUS46 KOTX 302321
TAFPUW
TAF
KPUW 302321Z 3100/3124 25016G24KT P6SM VCSH SCT070 BKN090
     FM310300 23008KT P6SM FEW070 SCT180
     FM311200 20006KT P6SM SCT030 BKN150
     FM311600 23012KT P6SM FEW050 SCT080 BKN150=



000
FTUS46 KOTX 302321
TAFLWS
TAF
KLWS 302321Z 3100/3124 28011G16KT P6SM VCSH SCT070 BKN090
     FM310200 22008KT P6SM FEW080 SCT150
     FM311000 VRB04KT P6SM FEW025 SCT150
     FM311900 02006KT P6SM SCT060 SCT200=



000
FTUS46 KOTX 302321
TAFMWH
TAF
KMWH 302321Z 3100/3124 23017G22KT P6SM SCT090 SCT150
     FM310200 21010KT P6SM SCT200
     FM310800 20007KT P6SM FEW030 SCT080 BKN100
     FM311800 19012G20KT P6SM SCT060 BKN090=



000
FTUS46 KOTX 302321
TAFEAT
TAF
KEAT 302321Z 3100/3124 29014G21KT P6SM SCT070 SCT200
     FM310300 30008KT P6SM SCT090 BKN150
     FM311800 14005KT P6SM SCT050 BKN090 BKN150=



000
FTUS46 KOTX 302321
TAFGEG
TAF
KGEG 302321Z 3100/3124 22018G24KT P6SM VCSH SCT030 BKN050 BKN070
     FM310200 21015KT P6SM SCT050 SCT150
     FM311000 19010KT P6SM SCT020 BKN030 OVC050
     FM311600 19013KT P6SM SCT030 BKN060
     FM311800 21014G20KT P6SM SCT040 BKN070 BKN100=



000
FTUS46 KOTX 302321
TAFSFF
TAF
KSFF 302321Z 3100/3124 22014G21KT P6SM VCSH SCT030 BKN070
     FM310200 22009KT P6SM SCT060 SCT150
     FM311000 21005KT P6SM SCT020 BKN030 OVC050
     FM311600 21010KT P6SM SCT030 BKN060
     FM311900 21012G18KT P6SM SCT040 BKN070 BKN100=



000
FTUS46 KOTX 302321
TAFMWH
TAF
KMWH 302321Z 3100/3124 23017G22KT P6SM SCT090 SCT150
     FM310200 21010KT P6SM SCT200
     FM310800 20007KT P6SM FEW030 SCT080 BKN100
     FM311800 19012G20KT P6SM SCT060 BKN090=



000
FTUS46 KOTX 302321
TAFSFF
TAF
KSFF 302321Z 3100/3124 22014G21KT P6SM VCSH SCT030 BKN070
     FM310200 22009KT P6SM SCT060 SCT150
     FM311000 21005KT P6SM SCT020 BKN030 OVC050
     FM311600 21010KT P6SM SCT030 BKN060
     FM311900 21012G18KT P6SM SCT040 BKN070 BKN100=



000
FTUS46 KOTX 302321
TAFLWS
TAF
KLWS 302321Z 3100/3124 28011G16KT P6SM VCSH SCT070 BKN090
     FM310200 22008KT P6SM FEW080 SCT150
     FM311000 VRB04KT P6SM FEW025 SCT150
     FM311900 02006KT P6SM SCT060 SCT200=



000
FTUS46 KOTX 302321
TAFEAT
TAF
KEAT 302321Z 3100/3124 29014G21KT P6SM SCT070 SCT200
     FM310300 30008KT P6SM SCT090 BKN150
     FM311800 14005KT P6SM SCT050 BKN090 BKN150=



000
FTUS46 KOTX 302321
TAFCOE
TAF
KCOE 302321Z 3100/3124 19012G19KT P6SM -SHRA VCTS BKN040CB BKN060
     FM310100 21012G18KT P6SM VCSH SCT050 BKN080
     FM310300 21008KT P6SM BKN080
     FM311000 20008KT P6SM SCT015 BKN025 OVC040
     FM311700 19010KT P6SM SCT030 BKN040 OVC060
     FM312000 20012KT P6SM SCT050 BKN100
      AMD LTD TO CLD AND VIS=



000
FTUS46 KOTX 302321
TAFGEG
TAF
KGEG 302321Z 3100/3124 22018G24KT P6SM VCSH SCT030 BKN050 BKN070
     FM310200 21015KT P6SM SCT050 SCT150
     FM311000 19010KT P6SM SCT020 BKN030 OVC050
     FM311600 19013KT P6SM SCT030 BKN060
     FM311800 21014G20KT P6SM SCT040 BKN070 BKN100=



000
FTUS46 KOTX 302321
TAFMWH
TAF
KMWH 302321Z 3100/3124 23017G22KT P6SM SCT090 SCT150
     FM310200 21010KT P6SM SCT200
     FM310800 20007KT P6SM FEW030 SCT080 BKN100
     FM311800 19012G20KT P6SM SCT060 BKN090=



000
FTUS46 KOTX 302321
TAFPUW
TAF
KPUW 302321Z 3100/3124 25016G24KT P6SM VCSH SCT070 BKN090
     FM310300 23008KT P6SM FEW070 SCT180
     FM311200 20006KT P6SM SCT030 BKN150
     FM311600 23012KT P6SM FEW050 SCT080 BKN150=



000
FTUS46 KOTX 302321
TAFLWS
TAF
KLWS 302321Z 3100/3124 28011G16KT P6SM VCSH SCT070 BKN090
     FM310200 22008KT P6SM FEW080 SCT150
     FM311000 VRB04KT P6SM FEW025 SCT150
     FM311900 02006KT P6SM SCT060 SCT200=



000
FTUS46 KOTX 302150 AAB
TAFLWS
TAF AMD
KLWS 302150Z 3022/3118 28013G20KT P6SM SCT070 BKN090
     FM310300 22008KT P6SM FEW080 SCT150
     FM311000 VRB04KT P6SM SCT200=



000
FTUS46 KOTX 302150 AAB
TAFLWS
TAF AMD
KLWS 302150Z 3022/3118 28013G20KT P6SM SCT070 BKN090
     FM310300 22008KT P6SM FEW080 SCT150
     FM311000 VRB04KT P6SM SCT200=



000
FTUS46 KOTX 302144 AAB
TAFPUW
TAF AMD
KPUW 302144Z 3022/3118 25014G21KT P6SM -SHRA SCT025 BKN040 OVC070
     FM302230 25017G25KT P6SM VCTS SCT050CB BKN070
     FM310030 24015G23KT P6SM SCT070
     FM310300 23008KT P6SM FEW070 SCT180
     FM311200 20008KT P6SM FEW030 BKN150=



000
FTUS46 KOTX 302144 AAB
TAFPUW
TAF AMD
KPUW 302144Z 3022/3118 25014G21KT P6SM -SHRA SCT025 BKN040 OVC070
     FM302230 25017G25KT P6SM VCTS SCT050CB BKN070
     FM310030 24015G23KT P6SM SCT070
     FM310300 23008KT P6SM FEW070 SCT180
     FM311200 20008KT P6SM FEW030 BKN150=



000
FTUS46 KOTX 302143 AAB
TAFCOE
TAF AMD
KCOE 302143Z 3022/3118 20012G19KT P6SM -SHRA VCTS BKN040CB BKN060
     FM310100 21012G18KT P6SM VCSH SCT050 BKN080
     FM310300 21008KT P6SM BKN080
     FM311300 20008KT P6SM SCT025 BKN150
      AMD LTD TO CLD AND VIS=



000
FTUS46 KOTX 302143 AAB
TAFCOE
TAF AMD
KCOE 302143Z 3022/3118 20012G19KT P6SM -SHRA VCTS BKN040CB BKN060
     FM310100 21012G18KT P6SM VCSH SCT050 BKN080
     FM310300 21008KT P6SM BKN080
     FM311300 20008KT P6SM SCT025 BKN150
      AMD LTD TO CLD AND VIS=



000
FTUS46 KOTX 302142 AAA
TAFSFF
TAF AMD
KSFF 302142Z 3022/3118 22014G21KT P6SM -SHRA VCTS BKN040CB BKN060
     FM310030 22012G20KT P6SM SCT060 SCT080
     FM310300 22010KT P6SM SCT060 SCT150
     FM311200 21007KT P6SM FEW035 BKN150=



000
FTUS46 KOTX 302142 AAA
TAFSFF
TAF AMD
KSFF 302142Z 3022/3118 22014G21KT P6SM -SHRA VCTS BKN040CB BKN060
     FM310030 22012G20KT P6SM SCT060 SCT080
     FM310300 22010KT P6SM SCT060 SCT150
     FM311200 21007KT P6SM FEW035 BKN150=



000
FTUS46 KOTX 302142 AAA
TAFSFF
TAF AMD
KSFF 302142Z 3022/3118 22014G21KT P6SM -SHRA VCTS BKN040CB BKN060
     FM310030 22012G20KT P6SM SCT060 SCT080
     FM310300 22010KT P6SM SCT060 SCT150
     FM311200 21007KT P6SM FEW035 BKN150=



000
FTUS46 KOTX 302142 AAA
TAFSFF
TAF AMD
KSFF 302142Z 3022/3118 22014G21KT P6SM -SHRA VCTS BKN040CB BKN060
     FM310030 22012G20KT P6SM SCT060 SCT080
     FM310300 22010KT P6SM SCT060 SCT150
     FM311200 21007KT P6SM FEW035 BKN150=



000
FTUS46 KOTX 302053 AAB
TAFGEG
TAF AMD
KGEG 302053Z 3021/3118 22020G28KT P6SM -SHRA BKN025 BKN050
     FM302230 22020G28KT P6SM -SHRA VCTS BKN040CB BKN070
     FM310000 22019G27KT P6SM VCSH SCT070
     FM310200 21015KT P6SM SCT050 SCT150
     FM311200 19012KT P6SM FEW030 BKN150=



000
FTUS46 KOTX 302053 AAB
TAFGEG
TAF AMD
KGEG 302053Z 3021/3118 22020G28KT P6SM -SHRA BKN025 BKN050
     FM302230 22020G28KT P6SM -SHRA VCTS BKN040CB BKN070
     FM310000 22019G27KT P6SM VCSH SCT070
     FM310200 21015KT P6SM SCT050 SCT150
     FM311200 19012KT P6SM FEW030 BKN150=



000
FTUS46 KOTX 302053 AAB
TAFGEG
TAF AMD
KGEG 302053Z 3021/3118 22020G28KT P6SM -SHRA BKN025 BKN050
     FM302230 22020G28KT P6SM -SHRA VCTS BKN040CB BKN070
     FM310000 22019G27KT P6SM VCSH SCT070
     FM310200 21015KT P6SM SCT050 SCT150
     FM311200 19012KT P6SM FEW030 BKN150=



000
FTUS46 KOTX 302053 AAB
TAFGEG
TAF AMD
KGEG 302053Z 3021/3118 22020G28KT P6SM -SHRA BKN025 BKN050
     FM302230 22020G28KT P6SM -SHRA VCTS BKN040CB BKN070
     FM310000 22019G27KT P6SM VCSH SCT070
     FM310200 21015KT P6SM SCT050 SCT150
     FM311200 19012KT P6SM FEW030 BKN150=



000
FTUS46 KOTX 301940 AAA
TAFLWS
TAF AMD
KLWS 301940Z 3020/3118 31010G17KT P6SM -SHRA BKN070 OVC100
     FM302100 31013G20KT P6SM SCT070 BKN090
     FM310300 22008KT P6SM FEW080 SCT150
     FM311000 VRB04KT P6SM SCT200=



000
FTUS46 KOTX 301940 AAA
TAFLWS
TAF AMD
KLWS 301940Z 3020/3118 31010G17KT P6SM -SHRA BKN070 OVC100
     FM302100 31013G20KT P6SM SCT070 BKN090
     FM310300 22008KT P6SM FEW080 SCT150
     FM311000 VRB04KT P6SM SCT200=



000
FTUS46 KOTX 301939 AAA
TAFPUW
TAF AMD
KPUW 301939Z 3020/3118 27014G21KT P6SM -SHRA SCT025 BKN040 OVC070
     FM302230 27017G25KT P6SM VCTS SCT050CB BKN070
     FM310030 27016G24KT P6SM SCT070
     FM310300 23008KT P6SM FEW070 SCT180
     FM311200 20008KT P6SM FEW030 BKN150=



000
FTUS46 KOTX 301939 AAA
TAFPUW
TAF AMD
KPUW 301939Z 3020/3118 27014G21KT P6SM -SHRA SCT025 BKN040 OVC070
     FM302230 27017G25KT P6SM VCTS SCT050CB BKN070
     FM310030 27016G24KT P6SM SCT070
     FM310300 23008KT P6SM FEW070 SCT180
     FM311200 20008KT P6SM FEW030 BKN150=



000
FTUS46 KOTX 301859 AAA
TAFCOE
TAF AMD
KCOE 301859Z 3019/3118 24010G20KT 6SM SHRA BR SCT015 BKN025 OVC040
     FM302030 22014G22KT P6SM VCSH BKN050 OVC070
     FM302200 22015G22KT P6SM -SHRA VCTS BKN050CB BKN070
     FM310100 21012G18KT P6SM VCSH SCT050 BKN080
     FM310300 21008KT P6SM BKN080
     FM311300 20008KT P6SM SCT025 BKN150
      AMD LTD TO CLD AND VIS=



000
FTUS46 KOTX 301859 AAA
TAFCOE
TAF AMD
KCOE 301859Z 3019/3118 24010G20KT 6SM SHRA BR SCT015 BKN025 OVC040
     FM302030 22014G22KT P6SM VCSH BKN050 OVC070
     FM302200 22015G22KT P6SM -SHRA VCTS BKN050CB BKN070
     FM310100 21012G18KT P6SM VCSH SCT050 BKN080
     FM310300 21008KT P6SM BKN080
     FM311300 20008KT P6SM SCT025 BKN150
      AMD LTD TO CLD AND VIS=



000
FTUS46 KOTX 301807 AAA
TAFGEG
TAF AMD
KGEG 301807Z 3018/3118 21014G20KT 6SM -SHRA BR SCT030 OVC060
      TEMPO 3018/3019 4SM RA BR BKN020 OVC040
     FM302000 22020G28KT P6SM VCSH SCT040 BKN060
     FM302100 22021G30KT P6SM -SHRA VCTS BKN050CB BKN070
     FM310000 22019G27KT P6SM VCSH SCT070
     FM310200 21015KT P6SM SCT050 SCT150
     FM311200 19012KT P6SM FEW030 BKN150=



000
FTUS46 KOTX 301807 AAA
TAFGEG
TAF AMD
KGEG 301807Z 3018/3118 21014G20KT 6SM -SHRA BR SCT030 OVC060
      TEMPO 3018/3019 4SM RA BR BKN020 OVC040
     FM302000 22020G28KT P6SM VCSH SCT040 BKN060
     FM302100 22021G30KT P6SM -SHRA VCTS BKN050CB BKN070
     FM310000 22019G27KT P6SM VCSH SCT070
     FM310200 21015KT P6SM SCT050 SCT150
     FM311200 19012KT P6SM FEW030 BKN150=



000
FTUS46 KOTX 301807 AAA
TAFGEG
TAF AMD
KGEG 301807Z 3018/3118 21014G20KT 6SM -SHRA BR SCT030 OVC060
      TEMPO 3018/3019 4SM RA BR BKN020 OVC040
     FM302000 22020G28KT P6SM VCSH SCT040 BKN060
     FM302100 22021G30KT P6SM -SHRA VCTS BKN050CB BKN070
     FM310000 22019G27KT P6SM VCSH SCT070
     FM310200 21015KT P6SM SCT050 SCT150
     FM311200 19012KT P6SM FEW030 BKN150=



000
FTUS46 KOTX 301807 AAA
TAFGEG
TAF AMD
KGEG 301807Z 3018/3118 21014G20KT 6SM -SHRA BR SCT030 OVC060
      TEMPO 3018/3019 4SM RA BR BKN020 OVC040
     FM302000 22020G28KT P6SM VCSH SCT040 BKN060
     FM302100 22021G30KT P6SM -SHRA VCTS BKN050CB BKN070
     FM310000 22019G27KT P6SM VCSH SCT070
     FM310200 21015KT P6SM SCT050 SCT150
     FM311200 19012KT P6SM FEW030 BKN150=



000
FTUS46 KOTX 301727
TAFSFF
TAF
KSFF 301727Z 3018/3118 22009G16KT 6SM -SHRA BR SCT040 OVC070
     FM302000 22014G22KT P6SM VCSH SCT040 BKN060
     FM302130 22016G24KT P6SM -SHRA VCTS BKN050CB BKN070
     FM310030 22012G20KT P6SM SCT060 SCT080
     FM310300 22010KT P6SM SCT060 SCT150
     FM311200 21007KT P6SM FEW035 BKN150=



000
FTUS46 KOTX 301727
TAFGEG
TAF
KGEG 301727Z 3018/3118 21014G20KT 6SM -SHRA BR SCT035 OVC070
     FM302000 22020G28KT P6SM VCSH SCT040 BKN060
     FM302100 22021G30KT P6SM -SHRA VCTS BKN050CB BKN070
     FM310000 22019G27KT P6SM VCSH SCT070
     FM310200 21015KT P6SM SCT050 SCT150
     FM311200 19012KT P6SM FEW030 BKN150=



000
FTUS46 KOTX 301727
TAFPUW
TAF
KPUW 301727Z 3018/3118 25012KT P6SM VCSH SCT070 OVC100
     FM301900 25014G21KT P6SM -SHRA SCT050 OVC070
     FM302230 25017G25KT P6SM VCTS SCT050CB BKN070
     FM310030 25016G24KT P6SM SCT070
     FM310300 23008KT P6SM FEW070 SCT180
     FM311200 20008KT P6SM FEW030 BKN150=



000
FTUS46 KOTX 301727
TAFCOE
TAF
KCOE 301727Z 3018/3118 24010KT 6SM -SHRA BR SCT035 OVC050
     FM302030 22014G22KT P6SM VCSH BKN050 OVC070
     FM302200 22015G22KT P6SM -SHRA VCTS BKN050CB BKN070
     FM310100 21012G18KT P6SM VCSH SCT050 BKN080
     FM310300 21008KT P6SM BKN080
     FM311300 20008KT P6SM SCT025 BKN150
      AMD LTD TO CLD AND VIS=



000
FTUS46 KOTX 301727
TAFCOE
TAF
KCOE 301727Z 3018/3118 24010KT 6SM -SHRA BR SCT035 OVC050
     FM302030 22014G22KT P6SM VCSH BKN050 OVC070
     FM302200 22015G22KT P6SM -SHRA VCTS BKN050CB BKN070
     FM310100 21012G18KT P6SM VCSH SCT050 BKN080
     FM310300 21008KT P6SM BKN080
     FM311300 20008KT P6SM SCT025 BKN150
      AMD LTD TO CLD AND VIS=



000
FTUS46 KOTX 301727
TAFPUW
TAF
KPUW 301727Z 3018/3118 25012KT P6SM VCSH SCT070 OVC100
     FM301900 25014G21KT P6SM -SHRA SCT050 OVC070
     FM302230 25017G25KT P6SM VCTS SCT050CB BKN070
     FM310030 25016G24KT P6SM SCT070
     FM310300 23008KT P6SM FEW070 SCT180
     FM311200 20008KT P6SM FEW030 BKN150=



000
FTUS46 KOTX 301727
TAFGEG
TAF
KGEG 301727Z 3018/3118 21014G20KT 6SM -SHRA BR SCT035 OVC070
     FM302000 22020G28KT P6SM VCSH SCT040 BKN060
     FM302100 22021G30KT P6SM -SHRA VCTS BKN050CB BKN070
     FM310000 22019G27KT P6SM VCSH SCT070
     FM310200 21015KT P6SM SCT050 SCT150
     FM311200 19012KT P6SM FEW030 BKN150=



000
FTUS46 KOTX 301727
TAFSFF
TAF
KSFF 301727Z 3018/3118 22009G16KT 6SM -SHRA BR SCT040 OVC070
     FM302000 22014G22KT P6SM VCSH SCT040 BKN060
     FM302130 22016G24KT P6SM -SHRA VCTS BKN050CB BKN070
     FM310030 22012G20KT P6SM SCT060 SCT080
     FM310300 22010KT P6SM SCT060 SCT150
     FM311200 21007KT P6SM FEW035 BKN150=



000
FTUS46 KOTX 301727
TAFSFF
TAF
KSFF 301727Z 3018/3118 22009G16KT 6SM -SHRA BR SCT040 OVC070
     FM302000 22014G22KT P6SM VCSH SCT040 BKN060
     FM302130 22016G24KT P6SM -SHRA VCTS BKN050CB BKN070
     FM310030 22012G20KT P6SM SCT060 SCT080
     FM310300 22010KT P6SM SCT060 SCT150
     FM311200 21007KT P6SM FEW035 BKN150=



000
FTUS46 KOTX 301727
TAFCOE
TAF
KCOE 301727Z 3018/3118 24010KT 6SM -SHRA BR SCT035 OVC050
     FM302030 22014G22KT P6SM VCSH BKN050 OVC070
     FM302200 22015G22KT P6SM -SHRA VCTS BKN050CB BKN070
     FM310100 21012G18KT P6SM VCSH SCT050 BKN080
     FM310300 21008KT P6SM BKN080
     FM311300 20008KT P6SM SCT025 BKN150
      AMD LTD TO CLD AND VIS=



000
FTUS46 KOTX 301727
TAFCOE
TAF
KCOE 301727Z 3018/3118 24010KT 6SM -SHRA BR SCT035 OVC050
     FM302030 22014G22KT P6SM VCSH BKN050 OVC070
     FM302200 22015G22KT P6SM -SHRA VCTS BKN050CB BKN070
     FM310100 21012G18KT P6SM VCSH SCT050 BKN080
     FM310300 21008KT P6SM BKN080
     FM311300 20008KT P6SM SCT025 BKN150
      AMD LTD TO CLD AND VIS=



000
FTUS46 KOTX 301727
TAFPUW
TAF
KPUW 301727Z 3018/3118 25012KT P6SM VCSH SCT070 OVC100
     FM301900 25014G21KT P6SM -SHRA SCT050 OVC070
     FM302230 25017G25KT P6SM VCTS SCT050CB BKN070
     FM310030 25016G24KT P6SM SCT070
     FM310300 23008KT P6SM FEW070 SCT180
     FM311200 20008KT P6SM FEW030 BKN150=



000
FTUS46 KOTX 301727
TAFSFF
TAF
KSFF 301727Z 3018/3118 22009G16KT 6SM -SHRA BR SCT040 OVC070
     FM302000 22014G22KT P6SM VCSH SCT040 BKN060
     FM302130 22016G24KT P6SM -SHRA VCTS BKN050CB BKN070
     FM310030 22012G20KT P6SM SCT060 SCT080
     FM310300 22010KT P6SM SCT060 SCT150
     FM311200 21007KT P6SM FEW035 BKN150=



000
FTUS46 KOTX 301727
TAFGEG
TAF
KGEG 301727Z 3018/3118 21014G20KT 6SM -SHRA BR SCT035 OVC070
     FM302000 22020G28KT P6SM VCSH SCT040 BKN060
     FM302100 22021G30KT P6SM -SHRA VCTS BKN050CB BKN070
     FM310000 22019G27KT P6SM VCSH SCT070
     FM310200 21015KT P6SM SCT050 SCT150
     FM311200 19012KT P6SM FEW030 BKN150=



000
FTUS46 KOTX 301727
TAFGEG
TAF
KGEG 301727Z 3018/3118 21014G20KT 6SM -SHRA BR SCT035 OVC070
     FM302000 22020G28KT P6SM VCSH SCT040 BKN060
     FM302100 22021G30KT P6SM -SHRA VCTS BKN050CB BKN070
     FM310000 22019G27KT P6SM VCSH SCT070
     FM310200 21015KT P6SM SCT050 SCT150
     FM311200 19012KT P6SM FEW030 BKN150=



000
FTUS46 KOTX 301727
TAFPUW
TAF
KPUW 301727Z 3018/3118 25012KT P6SM VCSH SCT070 OVC100
     FM301900 25014G21KT P6SM -SHRA SCT050 OVC070
     FM302230 25017G25KT P6SM VCTS SCT050CB BKN070
     FM310030 25016G24KT P6SM SCT070
     FM310300 23008KT P6SM FEW070 SCT180
     FM311200 20008KT P6SM FEW030 BKN150=



000
FTUS46 KOTX 301720
TAFLWS
TAF
KLWS 301720Z 3018/3118 30006KT P6SM SCT070 BKN120 OVC200
     FM301930 29010G17KT P6SM -SHRA BKN070 OVC100
     FM302100 20013G20KT P6SM SCT070 BKN090
     FM310300 22008KT P6SM FEW080 SCT150
     FM311000 VRB04KT P6SM SCT200=



000
FTUS46 KOTX 301720
TAFEAT
TAF
KEAT 301720Z 3018/3118 30010KT P6SM BKN150
     FM302000 29014G21KT P6SM SCT060 SCT250
     FM310300 30010KT P6SM SCT150 SCT200=



000
FTUS46 KOTX 301720
TAFEAT
TAF
KEAT 301720Z 3018/3118 30010KT P6SM BKN150
     FM302000 29014G21KT P6SM SCT060 SCT250
     FM310300 30010KT P6SM SCT150 SCT200=



000
FTUS46 KOTX 301720
TAFMWH
TAF
KMWH 301720Z 3018/3118 20011KT P6SM SCT080 BKN120
     FM301900 21013G21KT P6SM VCSH SCT060 BKN120
     FM302200 23017G22KT P6SM SCT080 SCT200
     FM310200 21010KT P6SM SCT200=



    US Dept of Commerce
    National Oceanic and Atmospheric Administration
    National Weather Service
    1325 East West Highway
    Silver Spring, MD 20910
    Page Author: NWS Internet Services Team
Disclaimer
Information Quality
Credits
Glossary
Privacy Policy
Freedom of Information Act (FOIA)
About Us
Career Opportunities